<?xml version="1.0" encoding="UTF-8" standalone="no" ?>
<gpx xmlns="http://www.topografix.com/GPX/1/1" xmlns:xsi="http://www.w3.org/2001/XMLSchema-instance" xsi:schemaLocation="http://www.topografix.com/GPX/1/1 http://www.topografix.com/GPX/1/1/gpx.xsd" version="1.1" creator="VisuGPX - https://www.visugpx.com">
  <metadata>
    <name>PilaTrail</name>
  </metadata>
  <trk>
    <name><![CDATA[PilaTrail]]></name>
    <extensions>
      <line xmlns="http://www.topografix.com/GPX/gpx_style/0/2">
        <color>0000FF</color>
        <width>4</width>
      </line>
    </extensions>
    <trkseg>
      <trkpt lat="45.36825" lon="4.66307">
        <ele>569.88532876095</ele>
        <time>2022-05-29T11:51:48.000Z</time>
      </trkpt>
      <trkpt lat="45.36825" lon="4.66306">
        <ele>570.39086522081</ele>
        <time>2022-05-29T11:51:48.000Z</time>
      </trkpt>
      <trkpt lat="45.36827" lon="4.66302">
        <ele>571.62324804822</ele>
        <time>2022-05-29T11:51:48.001Z</time>
      </trkpt>
      <trkpt lat="45.36841" lon="4.6629">
        <ele>573.31493174047</ele>
        <time>2022-05-29T11:51:48.008Z</time>
      </trkpt>
      <trkpt lat="45.36896" lon="4.66199">
        <ele>576.10024016969</ele>
        <time>2022-05-29T11:51:48.043Z</time>
      </trkpt>
      <trkpt lat="45.36901" lon="4.66192">
        <ele>579.02272640781</ele>
        <time>2022-05-29T11:51:48.080Z</time>
      </trkpt>
      <trkpt lat="45.3692" lon="4.66189">
        <ele>582.1658574962</ele>
        <time>2022-05-29T11:51:48.124Z</time>
      </trkpt>
      <trkpt lat="45.36926" lon="4.66206">
        <ele>585.03904295392</ele>
        <time>2022-05-29T11:51:48.172Z</time>
      </trkpt>
      <trkpt lat="45.3693" lon="4.66235">
        <ele>587.40893500391</ele>
        <time>2022-05-29T11:51:48.227Z</time>
      </trkpt>
      <trkpt lat="45.36937" lon="4.66263">
        <ele>589.53383189652</ele>
        <time>2022-05-29T11:51:48.289Z</time>
      </trkpt>
      <trkpt lat="45.36941" lon="4.66279">
        <ele>591.62724122864</ele>
        <time>2022-05-29T11:51:48.355Z</time>
      </trkpt>
      <trkpt lat="45.36978" lon="4.6631">
        <ele>594.20662633581</ele>
        <time>2022-05-29T11:51:48.435Z</time>
      </trkpt>
      <trkpt lat="45.36984" lon="4.663">
        <ele>597.0027261422</ele>
        <time>2022-05-29T11:51:48.519Z</time>
      </trkpt>
      <trkpt lat="45.36991" lon="4.66284">
        <ele>600.07464352114</ele>
        <time>2022-05-29T11:51:48.607Z</time>
      </trkpt>
      <trkpt lat="45.36993" lon="4.66271">
        <ele>603.18757320757</ele>
        <time>2022-05-29T11:51:48.698Z</time>
      </trkpt>
      <trkpt lat="45.36997" lon="4.6626">
        <ele>606.37761944759</ele>
        <time>2022-05-29T11:51:48.792Z</time>
      </trkpt>
      <trkpt lat="45.37005" lon="4.66253">
        <ele>609.68414724348</ele>
        <time>2022-05-29T11:51:48.889Z</time>
      </trkpt>
      <trkpt lat="45.37015" lon="4.66252">
        <ele>613.07576635383</ele>
        <time>2022-05-29T11:51:48.989Z</time>
      </trkpt>
      <trkpt lat="45.37053" lon="4.66258">
        <ele>617.011818434</ele>
        <time>2022-05-29T11:51:49.102Z</time>
      </trkpt>
      <trkpt lat="45.37065" lon="4.66262">
        <ele>620.74275489216</ele>
        <time>2022-05-29T11:51:49.219Z</time>
      </trkpt>
      <trkpt lat="45.37069" lon="4.66267">
        <ele>624.18337169605</ele>
        <time>2022-05-29T11:51:49.338Z</time>
      </trkpt>
      <trkpt lat="45.37113" lon="4.66319">
        <ele>627.65734776635</ele>
        <time>2022-05-29T11:51:49.476Z</time>
      </trkpt>
      <trkpt lat="45.3713" lon="4.66331">
        <ele>630.85760144048</ele>
        <time>2022-05-29T11:51:49.621Z</time>
      </trkpt>
      <trkpt lat="45.37149" lon="4.66338">
        <ele>633.77638502458</ele>
        <time>2022-05-29T11:51:49.772Z</time>
      </trkpt>
      <trkpt lat="45.37165" lon="4.66339">
        <ele>636.45160025715</ele>
        <time>2022-05-29T11:51:49.928Z</time>
      </trkpt>
      <trkpt lat="45.37202" lon="4.66325">
        <ele>639.2956866707</ele>
        <time>2022-05-29T11:51:50.097Z</time>
      </trkpt>
      <trkpt lat="45.37213" lon="4.66325">
        <ele>641.66954756499</ele>
        <time>2022-05-29T11:51:50.270Z</time>
      </trkpt>
      <trkpt lat="45.37226" lon="4.66329">
        <ele>643.6893588943</ele>
        <time>2022-05-29T11:51:50.447Z</time>
      </trkpt>
      <trkpt lat="45.37239" lon="4.66336">
        <ele>645.37724354675</ele>
        <time>2022-05-29T11:51:50.629Z</time>
      </trkpt>
      <trkpt lat="45.37241" lon="4.66334">
        <ele>646.82543786525</ele>
        <time>2022-05-29T11:51:50.812Z</time>
      </trkpt>
      <trkpt lat="45.37248" lon="4.66333">
        <ele>648.11370627106</ele>
        <time>2022-05-29T11:51:50.997Z</time>
      </trkpt>
      <trkpt lat="45.37268" lon="4.66348">
        <ele>649.21078521182</ele>
        <time>2022-05-29T11:51:51.190Z</time>
      </trkpt>
      <trkpt lat="45.37292" lon="4.6637">
        <ele>650.18311887245</ele>
        <time>2022-05-29T11:51:51.392Z</time>
      </trkpt>
      <trkpt lat="45.37322" lon="4.66391">
        <ele>651.2668602939</ele>
        <time>2022-05-29T11:51:51.605Z</time>
      </trkpt>
      <trkpt lat="45.37344" lon="4.66401">
        <ele>652.45140784886</ele>
        <time>2022-05-29T11:51:51.826Z</time>
      </trkpt>
      <trkpt lat="45.37364" lon="4.66402">
        <ele>653.79477775739</ele>
        <time>2022-05-29T11:51:52.054Z</time>
      </trkpt>
      <trkpt lat="45.3739" lon="4.66395">
        <ele>655.40710904208</ele>
        <time>2022-05-29T11:51:52.290Z</time>
      </trkpt>
      <trkpt lat="45.37406" lon="4.66394">
        <ele>657.0700886555</ele>
        <time>2022-05-29T11:51:52.532Z</time>
      </trkpt>
      <trkpt lat="45.3742" lon="4.66398">
        <ele>658.73163081982</ele>
        <time>2022-05-29T11:51:52.779Z</time>
      </trkpt>
      <trkpt lat="45.37429" lon="4.66403">
        <ele>660.38186523756</ele>
        <time>2022-05-29T11:51:53.029Z</time>
      </trkpt>
      <trkpt lat="45.37436" lon="4.66397">
        <ele>662.08323903264</ele>
        <time>2022-05-29T11:51:53.282Z</time>
      </trkpt>
      <trkpt lat="45.37438" lon="4.66384">
        <ele>663.80388977505</ele>
        <time>2022-05-29T11:51:53.538Z</time>
      </trkpt>
      <trkpt lat="45.37434" lon="4.66365">
        <ele>665.54662536689</ele>
        <time>2022-05-29T11:51:53.798Z</time>
      </trkpt>
      <trkpt lat="45.37423" lon="4.66349">
        <ele>667.28984455717</ele>
        <time>2022-05-29T11:51:54.064Z</time>
      </trkpt>
      <trkpt lat="45.37414" lon="4.66327">
        <ele>669.14445792071</ele>
        <time>2022-05-29T11:51:54.336Z</time>
      </trkpt>
      <trkpt lat="45.3741" lon="4.66289">
        <ele>671.24207738044</ele>
        <time>2022-05-29T11:51:54.617Z</time>
      </trkpt>
      <trkpt lat="45.3741" lon="4.66272">
        <ele>673.36291970857</ele>
        <time>2022-05-29T11:51:54.902Z</time>
      </trkpt>
      <trkpt lat="45.37398" lon="4.6625">
        <ele>675.52880274589</ele>
        <time>2022-05-29T11:51:55.193Z</time>
      </trkpt>
      <trkpt lat="45.37388" lon="4.66176">
        <ele>678.19281535744</ele>
        <time>2022-05-29T11:51:55.502Z</time>
      </trkpt>
      <trkpt lat="45.37382" lon="4.6615">
        <ele>680.68257431852</ele>
        <time>2022-05-29T11:51:55.817Z</time>
      </trkpt>
      <trkpt lat="45.37377" lon="4.66128">
        <ele>683.28368588712</ele>
        <time>2022-05-29T11:51:56.138Z</time>
      </trkpt>
      <trkpt lat="45.37356" lon="4.66109">
        <ele>685.88313631152</ele>
        <time>2022-05-29T11:51:56.467Z</time>
      </trkpt>
      <trkpt lat="45.37346" lon="4.66095">
        <ele>688.63306471715</ele>
        <time>2022-05-29T11:51:56.801Z</time>
      </trkpt>
      <trkpt lat="45.37345" lon="4.66081">
        <ele>691.61273778507</ele>
        <time>2022-05-29T11:51:57.138Z</time>
      </trkpt>
      <trkpt lat="45.37351" lon="4.6607">
        <ele>694.84284651546</ele>
        <time>2022-05-29T11:51:57.478Z</time>
      </trkpt>
      <trkpt lat="45.37385" lon="4.66046">
        <ele>698.51632043949</ele>
        <time>2022-05-29T11:51:57.831Z</time>
      </trkpt>
      <trkpt lat="45.37401" lon="4.66031">
        <ele>702.42896714378</ele>
        <time>2022-05-29T11:51:58.190Z</time>
      </trkpt>
      <trkpt lat="45.37413" lon="4.66011">
        <ele>706.51600304649</ele>
        <time>2022-05-29T11:51:58.555Z</time>
      </trkpt>
      <trkpt lat="45.3743" lon="4.6597">
        <ele>710.92766550574</ele>
        <time>2022-05-29T11:51:58.932Z</time>
      </trkpt>
      <trkpt lat="45.37437" lon="4.65941">
        <ele>715.48286244867</ele>
        <time>2022-05-29T11:51:59.316Z</time>
      </trkpt>
      <trkpt lat="45.37449" lon="4.65911">
        <ele>720.29000608069</ele>
        <time>2022-05-29T11:51:59.708Z</time>
      </trkpt>
      <trkpt lat="45.37461" lon="4.65887">
        <ele>725.16801921829</ele>
        <time>2022-05-29T11:52:00.107Z</time>
      </trkpt>
      <trkpt lat="45.37468" lon="4.65865">
        <ele>729.93462869541</ele>
        <time>2022-05-29T11:52:00.512Z</time>
      </trkpt>
      <trkpt lat="45.37478" lon="4.65801">
        <ele>734.89776275077</ele>
        <time>2022-05-29T11:52:00.932Z</time>
      </trkpt>
      <trkpt lat="45.37478" lon="4.65788">
        <ele>739.04356454792</ele>
        <time>2022-05-29T11:52:01.355Z</time>
      </trkpt>
      <trkpt lat="45.37473" lon="4.65765">
        <ele>742.66165192882</ele>
        <time>2022-05-29T11:52:01.784Z</time>
      </trkpt>
      <trkpt lat="45.37475" lon="4.65743">
        <ele>745.79127074617</ele>
        <time>2022-05-29T11:52:02.218Z</time>
      </trkpt>
      <trkpt lat="45.37473" lon="4.65728">
        <ele>748.04521409196</ele>
        <time>2022-05-29T11:52:02.655Z</time>
      </trkpt>
      <trkpt lat="45.37468" lon="4.65707">
        <ele>749.43091232605</ele>
        <time>2022-05-29T11:52:03.098Z</time>
      </trkpt>
      <trkpt lat="45.37459" lon="4.65689">
        <ele>749.73641633349</ele>
        <time>2022-05-29T11:52:03.546Z</time>
      </trkpt>
      <trkpt lat="45.37456" lon="4.65664">
        <ele>749.20182896059</ele>
        <time>2022-05-29T11:52:04.000Z</time>
      </trkpt>
      <trkpt lat="45.3745" lon="4.65643">
        <ele>747.55776964855</ele>
        <time>2022-05-29T11:52:04.459Z</time>
      </trkpt>
      <trkpt lat="45.37437" lon="4.65619">
        <ele>744.72809575994</ele>
        <time>2022-05-29T11:52:04.925Z</time>
      </trkpt>
      <trkpt lat="45.37426" lon="4.65612">
        <ele>740.83119815147</ele>
        <time>2022-05-29T11:52:05.395Z</time>
      </trkpt>
      <trkpt lat="45.37423" lon="4.6562">
        <ele>735.99267818541</ele>
        <time>2022-05-29T11:52:05.867Z</time>
      </trkpt>
      <trkpt lat="45.3742" lon="4.65631">
        <ele>730.23087038341</ele>
        <time>2022-05-29T11:52:06.342Z</time>
      </trkpt>
      <trkpt lat="45.37418" lon="4.65661">
        <ele>723.55268468226</ele>
        <time>2022-05-29T11:52:06.824Z</time>
      </trkpt>
      <trkpt lat="45.37402" lon="4.65711">
        <ele>715.73368144532</ele>
        <time>2022-05-29T11:52:07.319Z</time>
      </trkpt>
      <trkpt lat="45.37401" lon="4.65717">
        <ele>707.85136516527</ele>
        <time>2022-05-29T11:52:07.816Z</time>
      </trkpt>
      <trkpt lat="45.37344" lon="4.65778">
        <ele>698.44090595207</ele>
        <time>2022-05-29T11:52:08.336Z</time>
      </trkpt>
      <trkpt lat="45.37316" lon="4.65739">
        <ele>689.53624490002</ele>
        <time>2022-05-29T11:52:08.869Z</time>
      </trkpt>
      <trkpt lat="45.37285" lon="4.6572">
        <ele>680.59389113345</ele>
        <time>2022-05-29T11:52:09.414Z</time>
      </trkpt>
      <trkpt lat="45.3725" lon="4.65717">
        <ele>671.80771101745</ele>
        <time>2022-05-29T11:52:09.971Z</time>
      </trkpt>
      <trkpt lat="45.37209" lon="4.65696">
        <ele>663.24994312801</ele>
        <time>2022-05-29T11:52:10.542Z</time>
      </trkpt>
      <trkpt lat="45.3721" lon="4.65694">
        <ele>655.60721705425</ele>
        <time>2022-05-29T11:52:11.114Z</time>
      </trkpt>
      <trkpt lat="45.37197" lon="4.65686">
        <ele>648.31155218247</ele>
        <time>2022-05-29T11:52:11.690Z</time>
      </trkpt>
      <trkpt lat="45.37161" lon="4.6568">
        <ele>641.34455996076</ele>
        <time>2022-05-29T11:52:12.278Z</time>
      </trkpt>
      <trkpt lat="45.37156" lon="4.65679">
        <ele>635.20917989188</ele>
        <time>2022-05-29T11:52:12.868Z</time>
      </trkpt>
      <trkpt lat="45.37139" lon="4.65686">
        <ele>629.5193472853</ele>
        <time>2022-05-29T11:52:13.464Z</time>
      </trkpt>
      <trkpt lat="45.37131" lon="4.65695">
        <ele>624.44636081667</ele>
        <time>2022-05-29T11:52:14.063Z</time>
      </trkpt>
      <trkpt lat="45.3711" lon="4.65729">
        <ele>619.77199389873</ele>
        <time>2022-05-29T11:52:14.673Z</time>
      </trkpt>
      <trkpt lat="45.37093" lon="4.65738">
        <ele>615.60462475598</ele>
        <time>2022-05-29T11:52:15.289Z</time>
      </trkpt>
      <trkpt lat="45.371" lon="4.65707">
        <ele>612.11856208237</ele>
        <time>2022-05-29T11:52:15.913Z</time>
      </trkpt>
      <trkpt lat="45.37094" lon="4.65696">
        <ele>608.99967842378</ele>
        <time>2022-05-29T11:52:16.540Z</time>
      </trkpt>
      <trkpt lat="45.3707" lon="4.6564">
        <ele>606.16286219237</ele>
        <time>2022-05-29T11:52:17.182Z</time>
      </trkpt>
      <trkpt lat="45.37051" lon="4.65603">
        <ele>603.94150777965</ele>
        <time>2022-05-29T11:52:17.835Z</time>
      </trkpt>
      <trkpt lat="45.37037" lon="4.65575">
        <ele>602.35234355831</ele>
        <time>2022-05-29T11:52:18.496Z</time>
      </trkpt>
      <trkpt lat="45.37021" lon="4.65538">
        <ele>601.34481767062</ele>
        <time>2022-05-29T11:52:19.167Z</time>
      </trkpt>
      <trkpt lat="45.37015" lon="4.65529">
        <ele>600.90669116863</ele>
        <time>2022-05-29T11:52:19.841Z</time>
      </trkpt>
      <trkpt lat="45.37007" lon="4.65521">
        <ele>601.10195935113</ele>
        <time>2022-05-29T11:52:20.519Z</time>
      </trkpt>
      <trkpt lat="45.36983" lon="4.65503">
        <ele>601.91909303557</ele>
        <time>2022-05-29T11:52:21.206Z</time>
      </trkpt>
      <trkpt lat="45.36954" lon="4.65482">
        <ele>603.49530032425</ele>
        <time>2022-05-29T11:52:21.903Z</time>
      </trkpt>
      <trkpt lat="45.36944" lon="4.65477">
        <ele>606.04172326518</ele>
        <time>2022-05-29T11:52:22.604Z</time>
      </trkpt>
      <trkpt lat="45.3694" lon="4.65474">
        <ele>609.58031946705</ele>
        <time>2022-05-29T11:52:23.306Z</time>
      </trkpt>
      <trkpt lat="45.36955" lon="4.65464">
        <ele>614.34750756782</ele>
        <time>2022-05-29T11:52:24.014Z</time>
      </trkpt>
      <trkpt lat="45.36965" lon="4.65459">
        <ele>620.0071566852</ele>
        <time>2022-05-29T11:52:24.726Z</time>
      </trkpt>
      <trkpt lat="45.36976" lon="4.6546">
        <ele>626.58688162377</ele>
        <time>2022-05-29T11:52:25.441Z</time>
      </trkpt>
      <trkpt lat="45.36982" lon="4.65463">
        <ele>633.95931040735</ele>
        <time>2022-05-29T11:52:26.158Z</time>
      </trkpt>
      <trkpt lat="45.37018" lon="4.65365">
        <ele>643.31066124976</ele>
        <time>2022-05-29T11:52:26.901Z</time>
      </trkpt>
      <trkpt lat="45.37007" lon="4.65265">
        <ele>652.15299706939</ele>
        <time>2022-05-29T11:52:27.668Z</time>
      </trkpt>
      <trkpt lat="45.37055" lon="4.65282">
        <ele>661.85200342342</ele>
        <time>2022-05-29T11:52:28.452Z</time>
      </trkpt>
      <trkpt lat="45.37071" lon="4.65147">
        <ele>670.95238687959</ele>
        <time>2022-05-29T11:52:29.268Z</time>
      </trkpt>
      <trkpt lat="45.37105" lon="4.65114">
        <ele>680.44974605698</ele>
        <time>2022-05-29T11:52:30.098Z</time>
      </trkpt>
      <trkpt lat="45.37155" lon="4.64994">
        <ele>690.14817819114</ele>
        <time>2022-05-29T11:52:30.960Z</time>
      </trkpt>
      <trkpt lat="45.37179" lon="4.64889">
        <ele>699.19531930613</ele>
        <time>2022-05-29T11:52:31.848Z</time>
      </trkpt>
      <trkpt lat="45.37214" lon="4.64818">
        <ele>707.52955428866</ele>
        <time>2022-05-29T11:52:32.757Z</time>
      </trkpt>
      <trkpt lat="45.37222" lon="4.64809">
        <ele>714.45803034783</ele>
        <time>2022-05-29T11:52:33.669Z</time>
      </trkpt>
      <trkpt lat="45.37198" lon="4.64762">
        <ele>720.06245799304</ele>
        <time>2022-05-29T11:52:34.595Z</time>
      </trkpt>
      <trkpt lat="45.37192" lon="4.64723">
        <ele>724.84405914773</ele>
        <time>2022-05-29T11:52:35.530Z</time>
      </trkpt>
      <trkpt lat="45.37192" lon="4.64723">
        <ele>728.57468801435</ele>
        <time>2022-05-29T11:52:36.465Z</time>
      </trkpt>
      <trkpt lat="45.372" lon="4.64644">
        <ele>731.33062986713</ele>
        <time>2022-05-29T11:52:37.419Z</time>
      </trkpt>
      <trkpt lat="45.37218" lon="4.64592">
        <ele>733.15368024382</ele>
        <time>2022-05-29T11:52:38.387Z</time>
      </trkpt>
      <trkpt lat="45.37226" lon="4.64586">
        <ele>734.16809597371</ele>
        <time>2022-05-29T11:52:39.358Z</time>
      </trkpt>
      <trkpt lat="45.37233" lon="4.64558">
        <ele>734.28347855976</ele>
        <time>2022-05-29T11:52:40.336Z</time>
      </trkpt>
      <trkpt lat="45.37236" lon="4.64537">
        <ele>733.75585211327</ele>
        <time>2022-05-29T11:52:41.319Z</time>
      </trkpt>
      <trkpt lat="45.37246" lon="4.645">
        <ele>732.65540108441</ele>
        <time>2022-05-29T11:52:42.311Z</time>
      </trkpt>
      <trkpt lat="45.37271" lon="4.64428">
        <ele>731.15911232304</ele>
        <time>2022-05-29T11:52:43.322Z</time>
      </trkpt>
      <trkpt lat="45.37281" lon="4.64416">
        <ele>729.42425875904</ele>
        <time>2022-05-29T11:52:44.337Z</time>
      </trkpt>
      <trkpt lat="45.37316" lon="4.64351">
        <ele>727.55188761694</ele>
        <time>2022-05-29T11:52:45.371Z</time>
      </trkpt>
      <trkpt lat="45.37322" lon="4.64336">
        <ele>725.36409406581</ele>
        <time>2022-05-29T11:52:46.410Z</time>
      </trkpt>
      <trkpt lat="45.37324" lon="4.64314">
        <ele>722.99480757447</ele>
        <time>2022-05-29T11:52:47.454Z</time>
      </trkpt>
      <trkpt lat="45.37327" lon="4.64291">
        <ele>720.61648024332</ele>
        <time>2022-05-29T11:52:48.503Z</time>
      </trkpt>
      <trkpt lat="45.37319" lon="4.64245">
        <ele>718.21350823851</ele>
        <time>2022-05-29T11:52:49.563Z</time>
      </trkpt>
      <trkpt lat="45.37308" lon="4.64184">
        <ele>715.94570921093</ele>
        <time>2022-05-29T11:52:50.638Z</time>
      </trkpt>
      <trkpt lat="45.37306" lon="4.64174">
        <ele>714.12130157225</ele>
        <time>2022-05-29T11:52:51.716Z</time>
      </trkpt>
      <trkpt lat="45.37299" lon="4.64157">
        <ele>712.5755025171</ele>
        <time>2022-05-29T11:52:52.798Z</time>
      </trkpt>
      <trkpt lat="45.37294" lon="4.64124">
        <ele>711.48292743885</ele>
        <time>2022-05-29T11:52:53.888Z</time>
      </trkpt>
      <trkpt lat="45.37296" lon="4.64091">
        <ele>710.94728431408</ele>
        <time>2022-05-29T11:52:54.986Z</time>
      </trkpt>
      <trkpt lat="45.37289" lon="4.64029">
        <ele>710.87366422254</ele>
        <time>2022-05-29T11:52:56.099Z</time>
      </trkpt>
      <trkpt lat="45.37292" lon="4.63973">
        <ele>711.34612509522</ele>
        <time>2022-05-29T11:52:57.225Z</time>
      </trkpt>
      <trkpt lat="45.37292" lon="4.63964">
        <ele>712.27627897085</ele>
        <time>2022-05-29T11:52:58.353Z</time>
      </trkpt>
      <trkpt lat="45.37288" lon="4.63883">
        <ele>713.87521159063</ele>
        <time>2022-05-29T11:52:59.500Z</time>
      </trkpt>
      <trkpt lat="45.37292" lon="4.63864">
        <ele>715.83976752811</ele>
        <time>2022-05-29T11:53:00.652Z</time>
      </trkpt>
      <trkpt lat="45.37301" lon="4.63852">
        <ele>718.2305580108</ele>
        <time>2022-05-29T11:53:01.808Z</time>
      </trkpt>
      <trkpt lat="45.37307" lon="4.63832">
        <ele>721.05051325111</ele>
        <time>2022-05-29T11:53:02.969Z</time>
      </trkpt>
      <trkpt lat="45.3732" lon="4.63793">
        <ele>724.30042262141</ele>
        <time>2022-05-29T11:53:04.140Z</time>
      </trkpt>
      <trkpt lat="45.37323" lon="4.63779">
        <ele>727.60805600532</ele>
        <time>2022-05-29T11:53:05.315Z</time>
      </trkpt>
      <trkpt lat="45.37331" lon="4.63748">
        <ele>731.24060167339</ele>
        <time>2022-05-29T11:53:06.497Z</time>
      </trkpt>
      <trkpt lat="45.37347" lon="4.63734">
        <ele>734.89374642351</ele>
        <time>2022-05-29T11:53:07.686Z</time>
      </trkpt>
      <trkpt lat="45.37358" lon="4.63722">
        <ele>738.51511265862</ele>
        <time>2022-05-29T11:53:08.879Z</time>
      </trkpt>
      <trkpt lat="45.37364" lon="4.63686">
        <ele>742.20819968671</ele>
        <time>2022-05-29T11:53:10.081Z</time>
      </trkpt>
      <trkpt lat="45.37364" lon="4.63649">
        <ele>745.71145755781</ele>
        <time>2022-05-29T11:53:11.292Z</time>
      </trkpt>
      <trkpt lat="45.37367" lon="4.63623">
        <ele>749.03245829532</ele>
        <time>2022-05-29T11:53:12.509Z</time>
      </trkpt>
      <trkpt lat="45.37394" lon="4.63593">
        <ele>752.3197305464</ele>
        <time>2022-05-29T11:53:13.737Z</time>
      </trkpt>
      <trkpt lat="45.37401" lon="4.6355">
        <ele>755.35468985901</ele>
        <time>2022-05-29T11:53:14.976Z</time>
      </trkpt>
      <trkpt lat="45.37396" lon="4.63523">
        <ele>757.92652611456</ele>
        <time>2022-05-29T11:53:16.221Z</time>
      </trkpt>
      <trkpt lat="45.37372" lon="4.63515">
        <ele>760.11439784723</ele>
        <time>2022-05-29T11:53:17.474Z</time>
      </trkpt>
      <trkpt lat="45.37367" lon="4.63489">
        <ele>762.16503310259</ele>
        <time>2022-05-29T11:53:18.734Z</time>
      </trkpt>
      <trkpt lat="45.37356" lon="4.63464">
        <ele>763.92955738226</ele>
        <time>2022-05-29T11:53:20.001Z</time>
      </trkpt>
      <trkpt lat="45.37331" lon="4.63442">
        <ele>765.52690112957</ele>
        <time>2022-05-29T11:53:21.278Z</time>
      </trkpt>
      <trkpt lat="45.37312" lon="4.63433">
        <ele>766.67763881248</ele>
        <time>2022-05-29T11:53:22.561Z</time>
      </trkpt>
      <trkpt lat="45.37284" lon="4.63462">
        <ele>767.32682382427</ele>
        <time>2022-05-29T11:53:23.856Z</time>
      </trkpt>
      <trkpt lat="45.37251" lon="4.63503">
        <ele>767.65498332572</ele>
        <time>2022-05-29T11:53:25.165Z</time>
      </trkpt>
      <trkpt lat="45.3723" lon="4.63525">
        <ele>767.60417153518</ele>
        <time>2022-05-29T11:53:26.483Z</time>
      </trkpt>
      <trkpt lat="45.37212" lon="4.63545">
        <ele>767.4134968531</ele>
        <time>2022-05-29T11:53:27.808Z</time>
      </trkpt>
      <trkpt lat="45.37186" lon="4.63564">
        <ele>767.26442481359</ele>
        <time>2022-05-29T11:53:29.143Z</time>
      </trkpt>
      <trkpt lat="45.37169" lon="4.6359">
        <ele>766.9801836933</ele>
        <time>2022-05-29T11:53:30.487Z</time>
      </trkpt>
      <trkpt lat="45.37155" lon="4.63646">
        <ele>766.53668480907</ele>
        <time>2022-05-29T11:53:31.845Z</time>
      </trkpt>
      <trkpt lat="45.37136" lon="4.63687">
        <ele>766.48995602639</ele>
        <time>2022-05-29T11:53:33.214Z</time>
      </trkpt>
      <trkpt lat="45.37106" lon="4.63707">
        <ele>767.27662106095</ele>
        <time>2022-05-29T11:53:34.594Z</time>
      </trkpt>
      <trkpt lat="45.3707" lon="4.63723">
        <ele>768.68236405042</ele>
        <time>2022-05-29T11:53:35.987Z</time>
      </trkpt>
      <trkpt lat="45.37049" lon="4.63721">
        <ele>770.47742614015</ele>
        <time>2022-05-29T11:53:37.387Z</time>
      </trkpt>
      <trkpt lat="45.37046" lon="4.637">
        <ele>772.62377368324</ele>
        <time>2022-05-29T11:53:38.792Z</time>
      </trkpt>
      <trkpt lat="45.37045" lon="4.63698">
        <ele>775.07853297063</ele>
        <time>2022-05-29T11:53:40.197Z</time>
      </trkpt>
      <trkpt lat="45.37038" lon="4.63611">
        <ele>778.4301416571</ele>
        <time>2022-05-29T11:53:41.623Z</time>
      </trkpt>
      <trkpt lat="45.37041" lon="4.63557">
        <ele>781.94816542678</ele>
        <time>2022-05-29T11:53:43.062Z</time>
      </trkpt>
      <trkpt lat="45.37036" lon="4.63507">
        <ele>785.74991871744</ele>
        <time>2022-05-29T11:53:44.512Z</time>
      </trkpt>
      <trkpt lat="45.37028" lon="4.6347">
        <ele>789.73918771501</ele>
        <time>2022-05-29T11:53:45.972Z</time>
      </trkpt>
      <trkpt lat="45.37014" lon="4.63421">
        <ele>793.81230393893</ele>
        <time>2022-05-29T11:53:47.444Z</time>
      </trkpt>
      <trkpt lat="45.36999" lon="4.63382">
        <ele>797.98867512996</ele>
        <time>2022-05-29T11:53:48.926Z</time>
      </trkpt>
      <trkpt lat="45.36996" lon="4.63368">
        <ele>802.21791593683</ele>
        <time>2022-05-29T11:53:50.412Z</time>
      </trkpt>
      <trkpt lat="45.36992" lon="4.63344">
        <ele>806.44367469704</ele>
        <time>2022-05-29T11:53:51.904Z</time>
      </trkpt>
      <trkpt lat="45.36989" lon="4.63326">
        <ele>810.81399243141</ele>
        <time>2022-05-29T11:53:53.400Z</time>
      </trkpt>
      <trkpt lat="45.36999" lon="4.63327">
        <ele>815.51982354099</ele>
        <time>2022-05-29T11:53:54.899Z</time>
      </trkpt>
      <trkpt lat="45.37008" lon="4.63338">
        <ele>820.36887359689</ele>
        <time>2022-05-29T11:53:56.402Z</time>
      </trkpt>
      <trkpt lat="45.37037" lon="4.63351">
        <ele>825.72900383801</ele>
        <time>2022-05-29T11:53:57.915Z</time>
      </trkpt>
      <trkpt lat="45.37045" lon="4.63256">
        <ele>831.31443984353</ele>
        <time>2022-05-29T11:53:59.451Z</time>
      </trkpt>
      <trkpt lat="45.37049" lon="4.63207">
        <ele>836.48563586818</ele>
        <time>2022-05-29T11:54:00.999Z</time>
      </trkpt>
      <trkpt lat="45.37063" lon="4.63172">
        <ele>841.84467083511</ele>
        <time>2022-05-29T11:54:02.556Z</time>
      </trkpt>
      <trkpt lat="45.37078" lon="4.63117">
        <ele>847.36846409026</ele>
        <time>2022-05-29T11:54:04.127Z</time>
      </trkpt>
      <trkpt lat="45.37133" lon="4.62998">
        <ele>853.57148930189</ele>
        <time>2022-05-29T11:54:05.731Z</time>
      </trkpt>
      <trkpt lat="45.37162" lon="4.62969">
        <ele>858.9648675772</ele>
        <time>2022-05-29T11:54:07.347Z</time>
      </trkpt>
      <trkpt lat="45.37201" lon="4.62938">
        <ele>864.46384022534</ele>
        <time>2022-05-29T11:54:08.978Z</time>
      </trkpt>
      <trkpt lat="45.37239" lon="4.62925">
        <ele>869.77312015927</ele>
        <time>2022-05-29T11:54:10.622Z</time>
      </trkpt>
      <trkpt lat="45.37243" lon="4.62918">
        <ele>875.05565587786</ele>
        <time>2022-05-29T11:54:12.268Z</time>
      </trkpt>
      <trkpt lat="45.3726" lon="4.62894">
        <ele>880.39244503239</ele>
        <time>2022-05-29T11:54:13.922Z</time>
      </trkpt>
      <trkpt lat="45.37295" lon="4.62841">
        <ele>886.09909411165</ele>
        <time>2022-05-29T11:54:15.593Z</time>
      </trkpt>
      <trkpt lat="45.37305" lon="4.62822">
        <ele>891.12036895847</ele>
        <time>2022-05-29T11:54:17.270Z</time>
      </trkpt>
      <trkpt lat="45.3731" lon="4.62813">
        <ele>895.68571180125</ele>
        <time>2022-05-29T11:54:18.950Z</time>
      </trkpt>
      <trkpt lat="45.37304" lon="4.62764">
        <ele>900.23308411515</ele>
        <time>2022-05-29T11:54:20.641Z</time>
      </trkpt>
      <trkpt lat="45.37303" lon="4.62727">
        <ele>904.07581731991</ele>
        <time>2022-05-29T11:54:22.341Z</time>
      </trkpt>
      <trkpt lat="45.37296" lon="4.62677">
        <ele>907.40839309156</ele>
        <time>2022-05-29T11:54:24.053Z</time>
      </trkpt>
      <trkpt lat="45.37299" lon="4.62653">
        <ele>909.92885269834</ele>
        <time>2022-05-29T11:54:25.771Z</time>
      </trkpt>
      <trkpt lat="45.37295" lon="4.62621">
        <ele>911.70913962892</ele>
        <time>2022-05-29T11:54:27.496Z</time>
      </trkpt>
      <trkpt lat="45.373" lon="4.62586">
        <ele>912.90464024894</ele>
        <time>2022-05-29T11:54:29.230Z</time>
      </trkpt>
      <trkpt lat="45.37293" lon="4.62545">
        <ele>913.28505339735</ele>
        <time>2022-05-29T11:54:30.974Z</time>
      </trkpt>
      <trkpt lat="45.37247" lon="4.62454">
        <ele>912.87663416774</ele>
        <time>2022-05-29T11:54:32.744Z</time>
      </trkpt>
      <trkpt lat="45.37247" lon="4.62451">
        <ele>911.81749529863</ele>
        <time>2022-05-29T11:54:34.515Z</time>
      </trkpt>
      <trkpt lat="45.37226" lon="4.6246">
        <ele>910.06052856227</ele>
        <time>2022-05-29T11:54:36.293Z</time>
      </trkpt>
      <trkpt lat="45.37181" lon="4.62563">
        <ele>907.47933609797</ele>
        <time>2022-05-29T11:54:38.100Z</time>
      </trkpt>
      <trkpt lat="45.37159" lon="4.62632">
        <ele>905.79210498985</ele>
        <time>2022-05-29T11:54:39.924Z</time>
      </trkpt>
      <trkpt lat="45.37096" lon="4.62649">
        <ele>905.22234410415</ele>
        <time>2022-05-29T11:54:41.770Z</time>
      </trkpt>
      <trkpt lat="45.37051" lon="4.62649">
        <ele>905.78653825557</ele>
        <time>2022-05-29T11:54:43.631Z</time>
      </trkpt>
      <trkpt lat="45.37057" lon="4.62597">
        <ele>907.67177801595</ele>
        <time>2022-05-29T11:54:45.504Z</time>
      </trkpt>
      <trkpt lat="45.37054" lon="4.6258">
        <ele>910.60062051732</ele>
        <time>2022-05-29T11:54:47.381Z</time>
      </trkpt>
      <trkpt lat="45.37018" lon="4.62572">
        <ele>915.10439201613</ele>
        <time>2022-05-29T11:54:49.270Z</time>
      </trkpt>
      <trkpt lat="45.3696" lon="4.62555">
        <ele>921.29120358247</ele>
        <time>2022-05-29T11:54:51.179Z</time>
      </trkpt>
      <trkpt lat="45.36939" lon="4.62503">
        <ele>928.9840187009</ele>
        <time>2022-05-29T11:54:53.102Z</time>
      </trkpt>
      <trkpt lat="45.36939" lon="4.62503">
        <ele>937.34907262148</ele>
        <time>2022-05-29T11:54:55.025Z</time>
      </trkpt>
      <trkpt lat="45.36834" lon="4.62649">
        <ele>946.56281484186</ele>
        <time>2022-05-29T11:54:56.997Z</time>
      </trkpt>
      <trkpt lat="45.36807" lon="4.62585">
        <ele>958.24416409311</ele>
        <time>2022-05-29T11:54:58.987Z</time>
      </trkpt>
      <trkpt lat="45.36819" lon="4.62456">
        <ele>971.27052399774</ele>
        <time>2022-05-29T11:55:01.007Z</time>
      </trkpt>
      <trkpt lat="45.36704" lon="4.62443">
        <ele>984.56283514996</ele>
        <time>2022-05-29T11:55:03.066Z</time>
      </trkpt>
      <trkpt lat="45.36674" lon="4.62439">
        <ele>997.75804454222</ele>
        <time>2022-05-29T11:55:05.135Z</time>
      </trkpt>
      <trkpt lat="45.36679" lon="4.62314">
        <ele>1013.1360796861</ele>
        <time>2022-05-29T11:55:07.233Z</time>
      </trkpt>
      <trkpt lat="45.36697" lon="4.62269">
        <ele>1027.3560336203</ele>
        <time>2022-05-29T11:55:09.343Z</time>
      </trkpt>
      <trkpt lat="45.3672" lon="4.62242">
        <ele>1040.9631107694</ele>
        <time>2022-05-29T11:55:11.463Z</time>
      </trkpt>
      <trkpt lat="45.36728" lon="4.62228">
        <ele>1053.515775567</ele>
        <time>2022-05-29T11:55:13.587Z</time>
      </trkpt>
      <trkpt lat="45.36712" lon="4.62207">
        <ele>1065.6108417322</ele>
        <time>2022-05-29T11:55:15.718Z</time>
      </trkpt>
      <trkpt lat="45.36703" lon="4.62196">
        <ele>1076.1964387563</ele>
        <time>2022-05-29T11:55:17.853Z</time>
      </trkpt>
      <trkpt lat="45.36697" lon="4.6216">
        <ele>1085.9725747506</ele>
        <time>2022-05-29T11:55:19.997Z</time>
      </trkpt>
      <trkpt lat="45.36712" lon="4.62137">
        <ele>1094.3029527117</ele>
        <time>2022-05-29T11:55:22.148Z</time>
      </trkpt>
      <trkpt lat="45.36721" lon="4.62134">
        <ele>1100.9231495928</ele>
        <time>2022-05-29T11:55:24.303Z</time>
      </trkpt>
      <trkpt lat="45.36728" lon="4.62131">
        <ele>1106.2361297076</ele>
        <time>2022-05-29T11:55:26.460Z</time>
      </trkpt>
      <trkpt lat="45.36732" lon="4.62118">
        <ele>1110.47652806</ele>
        <time>2022-05-29T11:55:28.620Z</time>
      </trkpt>
      <trkpt lat="45.36733" lon="4.621">
        <ele>1113.4952668763</ele>
        <time>2022-05-29T11:55:30.785Z</time>
      </trkpt>
      <trkpt lat="45.36725" lon="4.62088">
        <ele>1115.5537832096</ele>
        <time>2022-05-29T11:55:32.953Z</time>
      </trkpt>
      <trkpt lat="45.36718" lon="4.62057">
        <ele>1116.6631756195</ele>
        <time>2022-05-29T11:55:35.129Z</time>
      </trkpt>
      <trkpt lat="45.36723" lon="4.62052">
        <ele>1116.573030647</ele>
        <time>2022-05-29T11:55:37.307Z</time>
      </trkpt>
      <trkpt lat="45.36722" lon="4.62044">
        <ele>1115.791109826</ele>
        <time>2022-05-29T11:55:39.487Z</time>
      </trkpt>
      <trkpt lat="45.36725" lon="4.62026">
        <ele>1114.2316564928</ele>
        <time>2022-05-29T11:55:41.671Z</time>
      </trkpt>
      <trkpt lat="45.36721" lon="4.62004">
        <ele>1112.0543527479</ele>
        <time>2022-05-29T11:55:43.861Z</time>
      </trkpt>
      <trkpt lat="45.36727" lon="4.6199">
        <ele>1109.3117378968</ele>
        <time>2022-05-29T11:55:46.055Z</time>
      </trkpt>
      <trkpt lat="45.36738" lon="4.61988">
        <ele>1106.207120229</ele>
        <time>2022-05-29T11:55:48.252Z</time>
      </trkpt>
      <trkpt lat="45.36753" lon="4.62">
        <ele>1102.87197417</ele>
        <time>2022-05-29T11:55:50.455Z</time>
      </trkpt>
      <trkpt lat="45.36766" lon="4.62019">
        <ele>1099.4429465258</ele>
        <time>2022-05-29T11:55:52.664Z</time>
      </trkpt>
      <trkpt lat="45.36773" lon="4.62019">
        <ele>1095.9056975284</ele>
        <time>2022-05-29T11:55:54.876Z</time>
      </trkpt>
      <trkpt lat="45.36776" lon="4.62014">
        <ele>1092.3771789663</ele>
        <time>2022-05-29T11:55:57.089Z</time>
      </trkpt>
      <trkpt lat="45.36778" lon="4.6201">
        <ele>1088.9326864882</ele>
        <time>2022-05-29T11:55:59.303Z</time>
      </trkpt>
      <trkpt lat="45.36774" lon="4.61965">
        <ele>1085.6096602905</ele>
        <time>2022-05-29T11:56:01.528Z</time>
      </trkpt>
      <trkpt lat="45.36779" lon="4.61938">
        <ele>1082.2100325862</ele>
        <time>2022-05-29T11:56:03.759Z</time>
      </trkpt>
      <trkpt lat="45.36782" lon="4.61932">
        <ele>1079.0232645144</ele>
        <time>2022-05-29T11:56:05.992Z</time>
      </trkpt>
      <trkpt lat="45.36798" lon="4.61905">
        <ele>1075.8397062435</ele>
        <time>2022-05-29T11:56:08.233Z</time>
      </trkpt>
      <trkpt lat="45.36826" lon="4.61898">
        <ele>1072.708474576</ele>
        <time>2022-05-29T11:56:10.484Z</time>
      </trkpt>
      <trkpt lat="45.36849" lon="4.61877">
        <ele>1069.9258556806</ele>
        <time>2022-05-29T11:56:12.744Z</time>
      </trkpt>
      <trkpt lat="45.36861" lon="4.61863">
        <ele>1067.4538284598</ele>
        <time>2022-05-29T11:56:15.009Z</time>
      </trkpt>
      <trkpt lat="45.36869" lon="4.61858">
        <ele>1065.2614349846</ele>
        <time>2022-05-29T11:56:17.277Z</time>
      </trkpt>
      <trkpt lat="45.36882" lon="4.61856">
        <ele>1063.3088616536</ele>
        <time>2022-05-29T11:56:19.549Z</time>
      </trkpt>
      <trkpt lat="45.36895" lon="4.6185">
        <ele>1061.5516742119</ele>
        <time>2022-05-29T11:56:21.826Z</time>
      </trkpt>
      <trkpt lat="45.36923" lon="4.61808">
        <ele>1059.9196933763</ele>
        <time>2022-05-29T11:56:24.117Z</time>
      </trkpt>
      <trkpt lat="45.36934" lon="4.61812">
        <ele>1058.5013736615</ele>
        <time>2022-05-29T11:56:26.411Z</time>
      </trkpt>
      <trkpt lat="45.3699" lon="4.61813">
        <ele>1057.0361033777</ele>
        <time>2022-05-29T11:56:28.724Z</time>
      </trkpt>
      <trkpt lat="45.37016" lon="4.61811">
        <ele>1055.7960487676</ele>
        <time>2022-05-29T11:56:31.046Z</time>
      </trkpt>
      <trkpt lat="45.37032" lon="4.61803">
        <ele>1054.5402444478</ele>
        <time>2022-05-29T11:56:33.373Z</time>
      </trkpt>
      <trkpt lat="45.37041" lon="4.61799">
        <ele>1053.0926947636</ele>
        <time>2022-05-29T11:56:35.704Z</time>
      </trkpt>
      <trkpt lat="45.37058" lon="4.61822">
        <ele>1051.2512037123</ele>
        <time>2022-05-29T11:56:38.042Z</time>
      </trkpt>
      <trkpt lat="45.37063" lon="4.61827">
        <ele>1049.2913350654</ele>
        <time>2022-05-29T11:56:40.382Z</time>
      </trkpt>
      <trkpt lat="45.37078" lon="4.6184">
        <ele>1047.0598821284</ele>
        <time>2022-05-29T11:56:42.728Z</time>
      </trkpt>
      <trkpt lat="45.37103" lon="4.61859">
        <ele>1044.5705125745</ele>
        <time>2022-05-29T11:56:45.084Z</time>
      </trkpt>
      <trkpt lat="45.37121" lon="4.61876">
        <ele>1041.7689007924</ele>
        <time>2022-05-29T11:56:47.447Z</time>
      </trkpt>
      <trkpt lat="45.37135" lon="4.61899">
        <ele>1038.6256673769</ele>
        <time>2022-05-29T11:56:49.817Z</time>
      </trkpt>
      <trkpt lat="45.37154" lon="4.61935">
        <ele>1035.2826004159</ele>
        <time>2022-05-29T11:56:52.198Z</time>
      </trkpt>
      <trkpt lat="45.37178" lon="4.61968">
        <ele>1031.9916179211</ele>
        <time>2022-05-29T11:56:54.590Z</time>
      </trkpt>
      <trkpt lat="45.37198" lon="4.62017">
        <ele>1028.4664765182</ele>
        <time>2022-05-29T11:56:56.995Z</time>
      </trkpt>
      <trkpt lat="45.37213" lon="4.62041">
        <ele>1025.5294699927</ele>
        <time>2022-05-29T11:56:59.408Z</time>
      </trkpt>
      <trkpt lat="45.37232" lon="4.62059">
        <ele>1022.9935361502</ele>
        <time>2022-05-29T11:57:01.828Z</time>
      </trkpt>
      <trkpt lat="45.37267" lon="4.62085">
        <ele>1020.8972684243</ele>
        <time>2022-05-29T11:57:04.261Z</time>
      </trkpt>
      <trkpt lat="45.37299" lon="4.62105">
        <ele>1019.4588663891</ele>
        <time>2022-05-29T11:57:06.706Z</time>
      </trkpt>
      <trkpt lat="45.37307" lon="4.62115">
        <ele>1018.6418780933</ele>
        <time>2022-05-29T11:57:09.155Z</time>
      </trkpt>
      <trkpt lat="45.37331" lon="4.62124">
        <ele>1018.7491455172</ele>
        <time>2022-05-29T11:57:11.612Z</time>
      </trkpt>
      <trkpt lat="45.37357" lon="4.62146">
        <ele>1019.3740165633</ele>
        <time>2022-05-29T11:57:14.079Z</time>
      </trkpt>
      <trkpt lat="45.37392" lon="4.62185">
        <ele>1020.4484478752</ele>
        <time>2022-05-29T11:57:16.561Z</time>
      </trkpt>
      <trkpt lat="45.37387" lon="4.62147">
        <ele>1022.4968718512</ele>
        <time>2022-05-29T11:57:19.052Z</time>
      </trkpt>
      <trkpt lat="45.37399" lon="4.62148">
        <ele>1024.7065644559</ele>
        <time>2022-05-29T11:57:21.547Z</time>
      </trkpt>
      <trkpt lat="45.37415" lon="4.6215">
        <ele>1027.3613614262</ele>
        <time>2022-05-29T11:57:24.047Z</time>
      </trkpt>
      <trkpt lat="45.37422" lon="4.62159">
        <ele>1030.2037123689</ele>
        <time>2022-05-29T11:57:26.550Z</time>
      </trkpt>
      <trkpt lat="45.37448" lon="4.6219">
        <ele>1033.2724107242</ele>
        <time>2022-05-29T11:57:29.065Z</time>
      </trkpt>
      <trkpt lat="45.37459" lon="4.62162">
        <ele>1037.2116770888</ele>
        <time>2022-05-29T11:57:31.587Z</time>
      </trkpt>
      <trkpt lat="45.3747" lon="4.62135">
        <ele>1041.2599987221</ele>
        <time>2022-05-29T11:57:34.117Z</time>
      </trkpt>
      <trkpt lat="45.37471" lon="4.62133">
        <ele>1045.0692131007</ele>
        <time>2022-05-29T11:57:36.647Z</time>
      </trkpt>
      <trkpt lat="45.37478" lon="4.62126">
        <ele>1049.0250488088</ele>
        <time>2022-05-29T11:57:39.180Z</time>
      </trkpt>
      <trkpt lat="45.37518" lon="4.62104">
        <ele>1053.2796424497</ele>
        <time>2022-05-29T11:57:41.727Z</time>
      </trkpt>
      <trkpt lat="45.3761" lon="4.62088">
        <ele>1057.3534727417</ele>
        <time>2022-05-29T11:57:44.305Z</time>
      </trkpt>
      <trkpt lat="45.37677" lon="4.62057">
        <ele>1061.3776149167</ele>
        <time>2022-05-29T11:57:46.907Z</time>
      </trkpt>
      <trkpt lat="45.37684" lon="4.62054">
        <ele>1065.3017930143</ele>
        <time>2022-05-29T11:57:49.511Z</time>
      </trkpt>
      <trkpt lat="45.37722" lon="4.62039">
        <ele>1069.1146202758</ele>
        <time>2022-05-29T11:57:52.128Z</time>
      </trkpt>
      <trkpt lat="45.3777" lon="4.61981">
        <ele>1073.6398462161</ele>
        <time>2022-05-29T11:57:54.766Z</time>
      </trkpt>
      <trkpt lat="45.37826" lon="4.61935">
        <ele>1077.9027308545</ele>
        <time>2022-05-29T11:57:57.426Z</time>
      </trkpt>
      <trkpt lat="45.37869" lon="4.61914">
        <ele>1082.0365668146</ele>
        <time>2022-05-29T11:58:00.101Z</time>
      </trkpt>
      <trkpt lat="45.37865" lon="4.61914">
        <ele>1086.0625947743</ele>
        <time>2022-05-29T11:58:02.778Z</time>
      </trkpt>
      <trkpt lat="45.37813" lon="4.61912">
        <ele>1090.4185764061</ele>
        <time>2022-05-29T11:58:05.472Z</time>
      </trkpt>
      <trkpt lat="45.37778" lon="4.61906">
        <ele>1094.8050181448</ele>
        <time>2022-05-29T11:58:08.178Z</time>
      </trkpt>
      <trkpt lat="45.3777" lon="4.61907">
        <ele>1098.7787136845</ele>
        <time>2022-05-29T11:58:10.886Z</time>
      </trkpt>
      <trkpt lat="45.37757" lon="4.61912">
        <ele>1102.6731143844</ele>
        <time>2022-05-29T11:58:13.599Z</time>
      </trkpt>
      <trkpt lat="45.377" lon="4.61942">
        <ele>1106.7052058446</ele>
        <time>2022-05-29T11:58:16.332Z</time>
      </trkpt>
      <trkpt lat="45.37693" lon="4.61941">
        <ele>1110.5315562687</ele>
        <time>2022-05-29T11:58:19.067Z</time>
      </trkpt>
      <trkpt lat="45.3768" lon="4.61932">
        <ele>1114.5008127102</ele>
        <time>2022-05-29T11:58:21.807Z</time>
      </trkpt>
      <trkpt lat="45.37663" lon="4.61925">
        <ele>1118.431507493</ele>
        <time>2022-05-29T11:58:24.553Z</time>
      </trkpt>
      <trkpt lat="45.3765" lon="4.61924">
        <ele>1122.1690911821</ele>
        <time>2022-05-29T11:58:27.303Z</time>
      </trkpt>
      <trkpt lat="45.37627" lon="4.61926">
        <ele>1125.8683452019</ele>
        <time>2022-05-29T11:58:30.061Z</time>
      </trkpt>
      <trkpt lat="45.3761" lon="4.61924">
        <ele>1129.3574781888</ele>
        <time>2022-05-29T11:58:32.825Z</time>
      </trkpt>
      <trkpt lat="45.37608" lon="4.61923">
        <ele>1132.8753570708</ele>
        <time>2022-05-29T11:58:35.590Z</time>
      </trkpt>
      <trkpt lat="45.37604" lon="4.61921">
        <ele>1136.4340872291</ele>
        <time>2022-05-29T11:58:38.356Z</time>
      </trkpt>
      <trkpt lat="45.37598" lon="4.61913">
        <ele>1140.1338925254</ele>
        <time>2022-05-29T11:58:41.125Z</time>
      </trkpt>
      <trkpt lat="45.37576" lon="4.61849">
        <ele>1144.589303543</ele>
        <time>2022-05-29T11:58:43.910Z</time>
      </trkpt>
      <trkpt lat="45.37553" lon="4.61817">
        <ele>1148.4675575788</ele>
        <time>2022-05-29T11:58:46.706Z</time>
      </trkpt>
      <trkpt lat="45.37549" lon="4.61808">
        <ele>1152.2071105179</ele>
        <time>2022-05-29T11:58:49.505Z</time>
      </trkpt>
      <trkpt lat="45.37548" lon="4.61801">
        <ele>1155.9359218699</ele>
        <time>2022-05-29T11:58:52.305Z</time>
      </trkpt>
      <trkpt lat="45.37552" lon="4.61784">
        <ele>1159.7646597723</ele>
        <time>2022-05-29T11:58:55.110Z</time>
      </trkpt>
      <trkpt lat="45.37553" lon="4.61777">
        <ele>1163.4827829183</ele>
        <time>2022-05-29T11:58:57.916Z</time>
      </trkpt>
      <trkpt lat="45.37559" lon="4.61769">
        <ele>1167.2217908874</ele>
        <time>2022-05-29T11:59:00.725Z</time>
      </trkpt>
      <trkpt lat="45.37564" lon="4.61767">
        <ele>1170.9035181958</ele>
        <time>2022-05-29T11:59:03.536Z</time>
      </trkpt>
      <trkpt lat="45.3759" lon="4.61764">
        <ele>1174.6485663008</ele>
        <time>2022-05-29T11:59:06.355Z</time>
      </trkpt>
      <trkpt lat="45.37619" lon="4.61747">
        <ele>1178.4889312283</ele>
        <time>2022-05-29T11:59:09.185Z</time>
      </trkpt>
      <trkpt lat="45.37624" lon="4.6174">
        <ele>1182.0373504094</ele>
        <time>2022-05-29T11:59:12.017Z</time>
      </trkpt>
      <trkpt lat="45.37642" lon="4.61719">
        <ele>1185.4967761444</ele>
        <time>2022-05-29T11:59:14.857Z</time>
      </trkpt>
      <trkpt lat="45.37676" lon="4.61658">
        <ele>1189.0524419391</ele>
        <time>2022-05-29T11:59:17.715Z</time>
      </trkpt>
      <trkpt lat="45.37707" lon="4.6159">
        <ele>1192.4032050387</ele>
        <time>2022-05-29T11:59:20.592Z</time>
      </trkpt>
      <trkpt lat="45.37716" lon="4.61579">
        <ele>1194.77685185</ele>
        <time>2022-05-29T11:59:23.473Z</time>
      </trkpt>
      <trkpt lat="45.37728" lon="4.61571">
        <ele>1196.661813348</ele>
        <time>2022-05-29T11:59:26.359Z</time>
      </trkpt>
      <trkpt lat="45.37729" lon="4.61571">
        <ele>1198.1063595449</ele>
        <time>2022-05-29T11:59:29.245Z</time>
      </trkpt>
      <trkpt lat="45.3775" lon="4.61562">
        <ele>1199.0440507194</ele>
        <time>2022-05-29T11:59:32.138Z</time>
      </trkpt>
      <trkpt lat="45.37764" lon="4.61557">
        <ele>1199.563863635</ele>
        <time>2022-05-29T11:59:35.036Z</time>
      </trkpt>
      <trkpt lat="45.37801" lon="4.61585">
        <ele>1199.588426052</ele>
        <time>2022-05-29T11:59:37.948Z</time>
      </trkpt>
      <trkpt lat="45.37805" lon="4.61593">
        <ele>1199.268912402</ele>
        <time>2022-05-29T11:59:40.862Z</time>
      </trkpt>
      <trkpt lat="45.37805" lon="4.61593">
        <ele>1198.6648630122</ele>
        <time>2022-05-29T11:59:43.776Z</time>
      </trkpt>
      <trkpt lat="45.37811" lon="4.61591">
        <ele>1197.7470934989</ele>
        <time>2022-05-29T11:59:46.692Z</time>
      </trkpt>
      <trkpt lat="45.37828" lon="4.61597">
        <ele>1196.5255663957</ele>
        <time>2022-05-29T11:59:49.614Z</time>
      </trkpt>
      <trkpt lat="45.37833" lon="4.61591">
        <ele>1195.2723256677</ele>
        <time>2022-05-29T11:59:52.539Z</time>
      </trkpt>
      <trkpt lat="45.3784" lon="4.61587">
        <ele>1193.922455799</ele>
        <time>2022-05-29T11:59:55.466Z</time>
      </trkpt>
      <trkpt lat="45.37847" lon="4.61588">
        <ele>1192.5454161266</ele>
        <time>2022-05-29T11:59:58.395Z</time>
      </trkpt>
      <trkpt lat="45.37853" lon="4.61575">
        <ele>1191.2739165052</ele>
        <time>2022-05-29T12:00:01.328Z</time>
      </trkpt>
      <trkpt lat="45.37854" lon="4.61572">
        <ele>1190.0642129193</ele>
        <time>2022-05-29T12:00:04.262Z</time>
      </trkpt>
      <trkpt lat="45.37863" lon="4.61561">
        <ele>1188.9609359805</ele>
        <time>2022-05-29T12:00:07.200Z</time>
      </trkpt>
      <trkpt lat="45.37875" lon="4.61522">
        <ele>1188.0097330905</ele>
        <time>2022-05-29T12:00:10.148Z</time>
      </trkpt>
      <trkpt lat="45.37888" lon="4.61515">
        <ele>1187.1445633721</ele>
        <time>2022-05-29T12:00:13.100Z</time>
      </trkpt>
      <trkpt lat="45.37889" lon="4.6151">
        <ele>1186.5004922896</ele>
        <time>2022-05-29T12:00:16.054Z</time>
      </trkpt>
      <trkpt lat="45.37891" lon="4.6151">
        <ele>1186.065772048</ele>
        <time>2022-05-29T12:00:19.008Z</time>
      </trkpt>
      <trkpt lat="45.3791" lon="4.61502">
        <ele>1185.7798929987</ele>
        <time>2022-05-29T12:00:21.969Z</time>
      </trkpt>
      <trkpt lat="45.37914" lon="4.61502">
        <ele>1185.7932241556</ele>
        <time>2022-05-29T12:00:24.931Z</time>
      </trkpt>
      <trkpt lat="45.37946" lon="4.61516">
        <ele>1185.9778205537</ele>
        <time>2022-05-29T12:00:27.904Z</time>
      </trkpt>
      <trkpt lat="45.37961" lon="4.61519">
        <ele>1186.4640812008</ele>
        <time>2022-05-29T12:00:30.882Z</time>
      </trkpt>
      <trkpt lat="45.37975" lon="4.61519">
        <ele>1187.2146111944</ele>
        <time>2022-05-29T12:00:33.865Z</time>
      </trkpt>
      <trkpt lat="45.37997" lon="4.61513">
        <ele>1188.1950414336</ele>
        <time>2022-05-29T12:00:36.856Z</time>
      </trkpt>
      <trkpt lat="45.38036" lon="4.61486">
        <ele>1189.453111004</ele>
        <time>2022-05-29T12:00:39.861Z</time>
      </trkpt>
      <trkpt lat="45.38109" lon="4.61468">
        <ele>1191.0431809763</ele>
        <time>2022-05-29T12:00:42.891Z</time>
      </trkpt>
      <trkpt lat="45.38121" lon="4.6146">
        <ele>1192.457137142</ele>
        <time>2022-05-29T12:00:45.925Z</time>
      </trkpt>
      <trkpt lat="45.38167" lon="4.61465">
        <ele>1193.7885528952</ele>
        <time>2022-05-29T12:00:48.975Z</time>
      </trkpt>
      <trkpt lat="45.38187" lon="4.61453">
        <ele>1195.1267485585</ele>
        <time>2022-05-29T12:00:52.032Z</time>
      </trkpt>
      <trkpt lat="45.38219" lon="4.61454">
        <ele>1196.2887353176</ele>
        <time>2022-05-29T12:00:55.099Z</time>
      </trkpt>
      <trkpt lat="45.38229" lon="4.61449">
        <ele>1197.2992787763</ele>
        <time>2022-05-29T12:00:58.170Z</time>
      </trkpt>
      <trkpt lat="45.38248" lon="4.61453">
        <ele>1198.1896975274</ele>
        <time>2022-05-29T12:01:01.247Z</time>
      </trkpt>
      <trkpt lat="45.38273" lon="4.61447">
        <ele>1198.8791343289</ele>
        <time>2022-05-29T12:01:04.333Z</time>
      </trkpt>
      <trkpt lat="45.38285" lon="4.61452">
        <ele>1199.4606077037</ele>
        <time>2022-05-29T12:01:07.423Z</time>
      </trkpt>
      <trkpt lat="45.38308" lon="4.61452">
        <ele>1199.8314324989</ele>
        <time>2022-05-29T12:01:10.521Z</time>
      </trkpt>
      <trkpt lat="45.38315" lon="4.61455">
        <ele>1200.062128</ele>
        <time>2022-05-29T12:01:13.621Z</time>
      </trkpt>
      <trkpt lat="45.38333" lon="4.61456">
        <ele>1200.1443511261</ele>
        <time>2022-05-29T12:01:16.727Z</time>
      </trkpt>
      <trkpt lat="45.38341" lon="4.61461">
        <ele>1200.1589051138</ele>
        <time>2022-05-29T12:01:19.836Z</time>
      </trkpt>
      <trkpt lat="45.38351" lon="4.61455">
        <ele>1200.089877916</ele>
        <time>2022-05-29T12:01:22.949Z</time>
      </trkpt>
      <trkpt lat="45.38361" lon="4.61457">
        <ele>1199.9926383436</ele>
        <time>2022-05-29T12:01:26.065Z</time>
      </trkpt>
      <trkpt lat="45.38374" lon="4.61464">
        <ele>1199.8850833414</ele>
        <time>2022-05-29T12:01:29.186Z</time>
      </trkpt>
      <trkpt lat="45.38385" lon="4.61477">
        <ele>1199.8252226554</ele>
        <time>2022-05-29T12:01:32.311Z</time>
      </trkpt>
      <trkpt lat="45.38396" lon="4.61483">
        <ele>1199.8360801181</ele>
        <time>2022-05-29T12:01:35.440Z</time>
      </trkpt>
      <trkpt lat="45.38435" lon="4.61487">
        <ele>1199.8964791077</ele>
        <time>2022-05-29T12:01:38.582Z</time>
      </trkpt>
      <trkpt lat="45.38476" lon="4.61497">
        <ele>1200.0056046623</ele>
        <time>2022-05-29T12:01:41.738Z</time>
      </trkpt>
      <trkpt lat="45.38483" lon="4.61504">
        <ele>1200.2080493648</ele>
        <time>2022-05-29T12:01:44.897Z</time>
      </trkpt>
      <trkpt lat="45.38482" lon="4.61509">
        <ele>1200.4579134708</ele>
        <time>2022-05-29T12:01:48.057Z</time>
      </trkpt>
      <trkpt lat="45.38488" lon="4.61517">
        <ele>1200.8165486315</ele>
        <time>2022-05-29T12:01:51.220Z</time>
      </trkpt>
      <trkpt lat="45.38491" lon="4.6152">
        <ele>1201.2209790219</ele>
        <time>2022-05-29T12:01:54.384Z</time>
      </trkpt>
      <trkpt lat="45.38495" lon="4.61522">
        <ele>1201.708639512</ele>
        <time>2022-05-29T12:01:57.550Z</time>
      </trkpt>
      <trkpt lat="45.38502" lon="4.61523">
        <ele>1202.2904000109</ele>
        <time>2022-05-29T12:02:00.718Z</time>
      </trkpt>
      <trkpt lat="45.38516" lon="4.61521">
        <ele>1202.969101031</ele>
        <time>2022-05-29T12:02:03.891Z</time>
      </trkpt>
      <trkpt lat="45.38522" lon="4.61536">
        <ele>1203.8517694065</ele>
        <time>2022-05-29T12:02:07.068Z</time>
      </trkpt>
      <trkpt lat="45.38528" lon="4.61541">
        <ele>1204.7835529411</ele>
        <time>2022-05-29T12:02:10.247Z</time>
      </trkpt>
      <trkpt lat="45.38527" lon="4.61548">
        <ele>1205.8387283392</ele>
        <time>2022-05-29T12:02:13.428Z</time>
      </trkpt>
      <trkpt lat="45.38533" lon="4.61557">
        <ele>1207.0498253523</ele>
        <time>2022-05-29T12:02:16.612Z</time>
      </trkpt>
      <trkpt lat="45.38539" lon="4.61559">
        <ele>1208.3717178494</ele>
        <time>2022-05-29T12:02:19.798Z</time>
      </trkpt>
      <trkpt lat="45.38544" lon="4.61557">
        <ele>1209.8233838481</ele>
        <time>2022-05-29T12:02:22.986Z</time>
      </trkpt>
      <trkpt lat="45.3855" lon="4.61571">
        <ele>1211.5147573594</ele>
        <time>2022-05-29T12:02:26.177Z</time>
      </trkpt>
      <trkpt lat="45.38555" lon="4.61573">
        <ele>1213.3204012669</ele>
        <time>2022-05-29T12:02:29.370Z</time>
      </trkpt>
      <trkpt lat="45.38558" lon="4.61578">
        <ele>1215.2698550909</ele>
        <time>2022-05-29T12:02:32.565Z</time>
      </trkpt>
      <trkpt lat="45.38566" lon="4.61579">
        <ele>1217.3691436387</ele>
        <time>2022-05-29T12:02:35.762Z</time>
      </trkpt>
      <trkpt lat="45.38575" lon="4.61591">
        <ele>1219.6347166815</ele>
        <time>2022-05-29T12:02:38.963Z</time>
      </trkpt>
      <trkpt lat="45.3859" lon="4.61596">
        <ele>1221.9894955601</ele>
        <time>2022-05-29T12:02:42.170Z</time>
      </trkpt>
      <trkpt lat="45.38598" lon="4.6161">
        <ele>1224.3697666856</ele>
        <time>2022-05-29T12:02:45.381Z</time>
      </trkpt>
      <trkpt lat="45.3861" lon="4.61618">
        <ele>1226.7430717333</ele>
        <time>2022-05-29T12:02:48.596Z</time>
      </trkpt>
      <trkpt lat="45.38625" lon="4.6162">
        <ele>1229.0566320004</ele>
        <time>2022-05-29T12:02:51.816Z</time>
      </trkpt>
      <trkpt lat="45.38633" lon="4.61627">
        <ele>1231.2388590419</ele>
        <time>2022-05-29T12:02:55.039Z</time>
      </trkpt>
      <trkpt lat="45.38637" lon="4.6164">
        <ele>1233.2647751078</ele>
        <time>2022-05-29T12:02:58.266Z</time>
      </trkpt>
      <trkpt lat="45.38645" lon="4.61651">
        <ele>1235.0867635416</ele>
        <time>2022-05-29T12:03:01.496Z</time>
      </trkpt>
      <trkpt lat="45.38653" lon="4.61647">
        <ele>1236.5676233105</ele>
        <time>2022-05-29T12:03:04.729Z</time>
      </trkpt>
      <trkpt lat="45.38663" lon="4.6165">
        <ele>1237.8310239072</ele>
        <time>2022-05-29T12:03:07.966Z</time>
      </trkpt>
      <trkpt lat="45.38685" lon="4.61671">
        <ele>1238.9485283646</ele>
        <time>2022-05-29T12:03:11.212Z</time>
      </trkpt>
      <trkpt lat="45.38688" lon="4.61686">
        <ele>1239.6632684883</ele>
        <time>2022-05-29T12:03:14.461Z</time>
      </trkpt>
      <trkpt lat="45.38695" lon="4.61705">
        <ele>1240.0569336877</ele>
        <time>2022-05-29T12:03:17.715Z</time>
      </trkpt>
      <trkpt lat="45.38695" lon="4.61706">
        <ele>1239.9930819386</ele>
        <time>2022-05-29T12:03:20.969Z</time>
      </trkpt>
      <trkpt lat="45.38695" lon="4.61705">
        <ele>1240.0569336877</ele>
        <time>2022-05-29T12:03:24.224Z</time>
      </trkpt>
      <trkpt lat="45.38714" lon="4.6167">
        <ele>1238.7757622652</ele>
        <time>2022-05-29T12:03:27.489Z</time>
      </trkpt>
      <trkpt lat="45.38723" lon="4.61663">
        <ele>1237.8211289887</ele>
        <time>2022-05-29T12:03:30.758Z</time>
      </trkpt>
      <trkpt lat="45.38802" lon="4.61644">
        <ele>1236.6874879783</ele>
        <time>2022-05-29T12:03:34.053Z</time>
      </trkpt>
      <trkpt lat="45.38814" lon="4.61638">
        <ele>1235.5150229557</ele>
        <time>2022-05-29T12:03:37.352Z</time>
      </trkpt>
      <trkpt lat="45.38823" lon="4.61632">
        <ele>1234.4849145759</ele>
        <time>2022-05-29T12:03:40.655Z</time>
      </trkpt>
      <trkpt lat="45.38823" lon="4.6163">
        <ele>1233.5456730429</ele>
        <time>2022-05-29T12:03:43.958Z</time>
      </trkpt>
      <trkpt lat="45.3883" lon="4.61615">
        <ele>1232.8326297111</ele>
        <time>2022-05-29T12:03:47.265Z</time>
      </trkpt>
      <trkpt lat="45.38836" lon="4.61601">
        <ele>1232.2232385439</ele>
        <time>2022-05-29T12:03:50.576Z</time>
      </trkpt>
      <trkpt lat="45.38841" lon="4.61588">
        <ele>1231.8835720115</ele>
        <time>2022-05-29T12:03:53.891Z</time>
      </trkpt>
      <trkpt lat="45.38848" lon="4.61567">
        <ele>1231.9673787436</ele>
        <time>2022-05-29T12:03:57.211Z</time>
      </trkpt>
      <trkpt lat="45.38853" lon="4.61572">
        <ele>1232.3337056989</ele>
        <time>2022-05-29T12:04:00.533Z</time>
      </trkpt>
      <trkpt lat="45.38857" lon="4.61574">
        <ele>1233.1136440373</ele>
        <time>2022-05-29T12:04:03.857Z</time>
      </trkpt>
      <trkpt lat="45.38866" lon="4.61573">
        <ele>1234.3741058753</ele>
        <time>2022-05-29T12:04:07.184Z</time>
      </trkpt>
      <trkpt lat="45.38877" lon="4.61566">
        <ele>1236.135926517</ele>
        <time>2022-05-29T12:04:10.515Z</time>
      </trkpt>
      <trkpt lat="45.38883" lon="4.61556">
        <ele>1238.3429599439</ele>
        <time>2022-05-29T12:04:13.849Z</time>
      </trkpt>
      <trkpt lat="45.38896" lon="4.61551">
        <ele>1240.942984978</ele>
        <time>2022-05-29T12:04:17.187Z</time>
      </trkpt>
      <trkpt lat="45.38915" lon="4.61536">
        <ele>1244.2832970859</ele>
        <time>2022-05-29T12:04:20.533Z</time>
      </trkpt>
      <trkpt lat="45.38928" lon="4.61522">
        <ele>1247.8778125235</ele>
        <time>2022-05-29T12:04:23.884Z</time>
      </trkpt>
      <trkpt lat="45.38937" lon="4.61499">
        <ele>1251.9062933348</ele>
        <time>2022-05-29T12:04:27.241Z</time>
      </trkpt>
      <trkpt lat="45.38941" lon="4.6149">
        <ele>1256.254812399</ele>
        <time>2022-05-29T12:04:30.601Z</time>
      </trkpt>
      <trkpt lat="45.38948" lon="4.61457">
        <ele>1261.117150801</ele>
        <time>2022-05-29T12:04:33.969Z</time>
      </trkpt>
      <trkpt lat="45.38983" lon="4.61361">
        <ele>1266.449539487</ele>
        <time>2022-05-29T12:04:37.362Z</time>
      </trkpt>
      <trkpt lat="45.38992" lon="4.61256">
        <ele>1271.4694165264</ele>
        <time>2022-05-29T12:04:40.780Z</time>
      </trkpt>
      <trkpt lat="45.38997" lon="4.61223">
        <ele>1276.3751913392</ele>
        <time>2022-05-29T12:04:44.206Z</time>
      </trkpt>
      <trkpt lat="45.38997" lon="4.61208">
        <ele>1281.1433767411</ele>
        <time>2022-05-29T12:04:47.635Z</time>
      </trkpt>
      <trkpt lat="45.38999" lon="4.61201">
        <ele>1285.8277182959</ele>
        <time>2022-05-29T12:04:51.066Z</time>
      </trkpt>
      <trkpt lat="45.39003" lon="4.61196">
        <ele>1290.4167923916</ele>
        <time>2022-05-29T12:04:54.499Z</time>
      </trkpt>
      <trkpt lat="45.39009" lon="4.61182">
        <ele>1294.9179910841</ele>
        <time>2022-05-29T12:04:57.936Z</time>
      </trkpt>
      <trkpt lat="45.39014" lon="4.61168">
        <ele>1299.207472993</ele>
        <time>2022-05-29T12:05:01.377Z</time>
      </trkpt>
      <trkpt lat="45.39036" lon="4.6113">
        <ele>1303.4349352604</ele>
        <time>2022-05-29T12:05:04.829Z</time>
      </trkpt>
      <trkpt lat="45.39048" lon="4.61103">
        <ele>1307.2641611901</ele>
        <time>2022-05-29T12:05:08.289Z</time>
      </trkpt>
      <trkpt lat="45.39057" lon="4.61081">
        <ele>1310.7871163903</ele>
        <time>2022-05-29T12:05:11.755Z</time>
      </trkpt>
      <trkpt lat="45.39065" lon="4.61057">
        <ele>1313.9559996403</ele>
        <time>2022-05-29T12:05:15.227Z</time>
      </trkpt>
      <trkpt lat="45.39093" lon="4.60928">
        <ele>1317.0411768426</ele>
        <time>2022-05-29T12:05:18.731Z</time>
      </trkpt>
      <trkpt lat="45.39095" lon="4.60892">
        <ele>1319.2201030069</ele>
        <time>2022-05-29T12:05:22.243Z</time>
      </trkpt>
      <trkpt lat="45.39095" lon="4.60886">
        <ele>1321.0377762245</ele>
        <time>2022-05-29T12:05:25.756Z</time>
      </trkpt>
      <trkpt lat="45.39095" lon="4.6086">
        <ele>1322.4815851498</ele>
        <time>2022-05-29T12:05:29.276Z</time>
      </trkpt>
      <trkpt lat="45.391" lon="4.60846">
        <ele>1323.716604136</ele>
        <time>2022-05-29T12:05:32.799Z</time>
      </trkpt>
      <trkpt lat="45.39104" lon="4.60845">
        <ele>1324.652724374</ele>
        <time>2022-05-29T12:05:36.324Z</time>
      </trkpt>
      <trkpt lat="45.39111" lon="4.60845">
        <ele>1325.3710635163</ele>
        <time>2022-05-29T12:05:39.851Z</time>
      </trkpt>
      <trkpt lat="45.39118" lon="4.60842">
        <ele>1325.9052159728</ele>
        <time>2022-05-29T12:05:43.380Z</time>
      </trkpt>
      <trkpt lat="45.39127" lon="4.60877">
        <ele>1326.4467692093</ele>
        <time>2022-05-29T12:05:46.918Z</time>
      </trkpt>
      <trkpt lat="45.3913" lon="4.60867">
        <ele>1326.8608220924</ele>
        <time>2022-05-29T12:05:50.459Z</time>
      </trkpt>
      <trkpt lat="45.39134" lon="4.60859">
        <ele>1327.2623774769</ele>
        <time>2022-05-29T12:05:54.002Z</time>
      </trkpt>
      <trkpt lat="45.39138" lon="4.60853">
        <ele>1327.7143174694</ele>
        <time>2022-05-29T12:05:57.547Z</time>
      </trkpt>
      <trkpt lat="45.39146" lon="4.60864">
        <ele>1328.2842973239</ele>
        <time>2022-05-29T12:06:01.096Z</time>
      </trkpt>
      <trkpt lat="45.39152" lon="4.60878">
        <ele>1329.0088804853</ele>
        <time>2022-05-29T12:06:04.648Z</time>
      </trkpt>
      <trkpt lat="45.3916" lon="4.60885">
        <ele>1329.7630858122</ele>
        <time>2022-05-29T12:06:08.204Z</time>
      </trkpt>
      <trkpt lat="45.39176" lon="4.60912">
        <ele>1330.7457789387</ele>
        <time>2022-05-29T12:06:11.768Z</time>
      </trkpt>
      <trkpt lat="45.39189" lon="4.6093">
        <ele>1331.6427496088</ele>
        <time>2022-05-29T12:06:15.338Z</time>
      </trkpt>
      <trkpt lat="45.3921" lon="4.60956">
        <ele>1332.576870355</ele>
        <time>2022-05-29T12:06:18.917Z</time>
      </trkpt>
      <trkpt lat="45.39214" lon="4.60963">
        <ele>1333.3161103248</ele>
        <time>2022-05-29T12:06:22.498Z</time>
      </trkpt>
      <trkpt lat="45.39216" lon="4.60969">
        <ele>1333.9196551345</ele>
        <time>2022-05-29T12:06:26.081Z</time>
      </trkpt>
      <trkpt lat="45.39217" lon="4.60989">
        <ele>1334.4757718832</ele>
        <time>2022-05-29T12:06:29.669Z</time>
      </trkpt>
      <trkpt lat="45.39223" lon="4.60996">
        <ele>1334.7307178105</ele>
        <time>2022-05-29T12:06:33.259Z</time>
      </trkpt>
      <trkpt lat="45.39231" lon="4.61002">
        <ele>1334.8014112897</ele>
        <time>2022-05-29T12:06:36.852Z</time>
      </trkpt>
      <trkpt lat="45.39235" lon="4.61006">
        <ele>1334.7948664429</ele>
        <time>2022-05-29T12:06:40.447Z</time>
      </trkpt>
      <trkpt lat="45.39238" lon="4.61013">
        <ele>1334.7041405667</ele>
        <time>2022-05-29T12:06:44.044Z</time>
      </trkpt>
      <trkpt lat="45.3924" lon="4.6102">
        <ele>1334.5301435796</ele>
        <time>2022-05-29T12:06:47.643Z</time>
      </trkpt>
      <trkpt lat="45.39247" lon="4.61026">
        <ele>1334.1847086787</ele>
        <time>2022-05-29T12:06:51.244Z</time>
      </trkpt>
      <trkpt lat="45.39254" lon="4.61046">
        <ele>1333.8374638682</ele>
        <time>2022-05-29T12:06:54.851Z</time>
      </trkpt>
      <trkpt lat="45.39263" lon="4.61059">
        <ele>1333.3779421756</ele>
        <time>2022-05-29T12:06:58.462Z</time>
      </trkpt>
      <trkpt lat="45.39264" lon="4.61065">
        <ele>1333.0195566391</ele>
        <time>2022-05-29T12:07:02.074Z</time>
      </trkpt>
      <trkpt lat="45.39272" lon="4.61129">
        <ele>1332.874070141</ele>
        <time>2022-05-29T12:07:05.702Z</time>
      </trkpt>
      <trkpt lat="45.39275" lon="4.61153">
        <ele>1332.5654823195</ele>
        <time>2022-05-29T12:07:09.335Z</time>
      </trkpt>
      <trkpt lat="45.39276" lon="4.61169">
        <ele>1332.2732471618</ele>
        <time>2022-05-29T12:07:12.972Z</time>
      </trkpt>
      <trkpt lat="45.39274" lon="4.612">
        <ele>1332.0051951147</ele>
        <time>2022-05-29T12:07:16.616Z</time>
      </trkpt>
      <trkpt lat="45.39276" lon="4.61212">
        <ele>1331.713401801</ele>
        <time>2022-05-29T12:07:20.263Z</time>
      </trkpt>
      <trkpt lat="45.3928" lon="4.61222">
        <ele>1331.4465380291</ele>
        <time>2022-05-29T12:07:23.913Z</time>
      </trkpt>
      <trkpt lat="45.39292" lon="4.61234">
        <ele>1331.1458478832</ele>
        <time>2022-05-29T12:07:27.568Z</time>
      </trkpt>
      <trkpt lat="45.39295" lon="4.61244">
        <ele>1331.1086051736</ele>
        <time>2022-05-29T12:07:31.225Z</time>
      </trkpt>
      <trkpt lat="45.39306" lon="4.61249">
        <ele>1331.1156283638</ele>
        <time>2022-05-29T12:07:34.886Z</time>
      </trkpt>
      <trkpt lat="45.3931" lon="4.61272">
        <ele>1331.489580348</ele>
        <time>2022-05-29T12:07:38.553Z</time>
      </trkpt>
      <trkpt lat="45.39316" lon="4.61271">
        <ele>1331.9889211089</ele>
        <time>2022-05-29T12:07:42.222Z</time>
      </trkpt>
      <trkpt lat="45.3932" lon="4.61275">
        <ele>1332.7843135373</ele>
        <time>2022-05-29T12:07:45.892Z</time>
      </trkpt>
      <trkpt lat="45.39317" lon="4.61279">
        <ele>1333.9305183723</ele>
        <time>2022-05-29T12:07:49.564Z</time>
      </trkpt>
      <trkpt lat="45.3931" lon="4.6129">
        <ele>1335.3722222699</ele>
        <time>2022-05-29T12:07:53.239Z</time>
      </trkpt>
      <trkpt lat="45.39301" lon="4.61288">
        <ele>1337.0488955598</ele>
        <time>2022-05-29T12:07:56.917Z</time>
      </trkpt>
      <trkpt lat="45.39286" lon="4.61295">
        <ele>1338.8448044234</ele>
        <time>2022-05-29T12:08:00.601Z</time>
      </trkpt>
      <trkpt lat="45.39275" lon="4.61294">
        <ele>1340.7476991027</ele>
        <time>2022-05-29T12:08:04.288Z</time>
      </trkpt>
      <trkpt lat="45.39258" lon="4.61288">
        <ele>1342.7507377253</ele>
        <time>2022-05-29T12:08:07.981Z</time>
      </trkpt>
      <trkpt lat="45.39241" lon="4.61289">
        <ele>1344.684315101</ele>
        <time>2022-05-29T12:08:11.680Z</time>
      </trkpt>
      <trkpt lat="45.39238" lon="4.61292">
        <ele>1346.4019218621</ele>
        <time>2022-05-29T12:08:15.380Z</time>
      </trkpt>
      <trkpt lat="45.3923" lon="4.6129">
        <ele>1347.9740168039</ele>
        <time>2022-05-29T12:08:19.083Z</time>
      </trkpt>
      <trkpt lat="45.39228" lon="4.61288">
        <ele>1349.2289106992</ele>
        <time>2022-05-29T12:08:22.787Z</time>
      </trkpt>
      <trkpt lat="45.39223" lon="4.61283">
        <ele>1350.1620510268</ele>
        <time>2022-05-29T12:08:26.493Z</time>
      </trkpt>
      <trkpt lat="45.39216" lon="4.61278">
        <ele>1350.6793713628</ele>
        <time>2022-05-29T12:08:30.201Z</time>
      </trkpt>
      <trkpt lat="45.39211" lon="4.61278">
        <ele>1350.56820634</ele>
        <time>2022-05-29T12:08:33.911Z</time>
      </trkpt>
      <trkpt lat="45.39203" lon="4.61287">
        <ele>1349.8038019329</ele>
        <time>2022-05-29T12:08:37.624Z</time>
      </trkpt>
      <trkpt lat="45.39181" lon="4.6129">
        <ele>1348.2964601275</ele>
        <time>2022-05-29T12:08:41.345Z</time>
      </trkpt>
      <trkpt lat="45.39176" lon="4.61298">
        <ele>1346.3217672018</ele>
        <time>2022-05-29T12:08:45.068Z</time>
      </trkpt>
      <trkpt lat="45.39171" lon="4.613">
        <ele>1343.7532345014</ele>
        <time>2022-05-29T12:08:48.793Z</time>
      </trkpt>
      <trkpt lat="45.39169" lon="4.61306">
        <ele>1340.5115385648</ele>
        <time>2022-05-29T12:08:52.519Z</time>
      </trkpt>
      <trkpt lat="45.39162" lon="4.61309">
        <ele>1336.5445493567</ele>
        <time>2022-05-29T12:08:56.248Z</time>
      </trkpt>
      <trkpt lat="45.3916" lon="4.6132">
        <ele>1331.888795211</ele>
        <time>2022-05-29T12:08:59.980Z</time>
      </trkpt>
      <trkpt lat="45.3915" lon="4.61319">
        <ele>1326.5538009792</ele>
        <time>2022-05-29T12:09:03.715Z</time>
      </trkpt>
      <trkpt lat="45.39144" lon="4.61324">
        <ele>1320.530751731</ele>
        <time>2022-05-29T12:09:07.452Z</time>
      </trkpt>
      <trkpt lat="45.3914" lon="4.61338">
        <ele>1313.8271233072</ele>
        <time>2022-05-29T12:09:11.193Z</time>
      </trkpt>
      <trkpt lat="45.39125" lon="4.61341">
        <ele>1306.4466334514</ele>
        <time>2022-05-29T12:09:14.939Z</time>
      </trkpt>
      <trkpt lat="45.39101" lon="4.61384">
        <ele>1298.1372514458</ele>
        <time>2022-05-29T12:09:18.698Z</time>
      </trkpt>
      <trkpt lat="45.39075" lon="4.61408">
        <ele>1289.527528012</ele>
        <time>2022-05-29T12:09:22.467Z</time>
      </trkpt>
      <trkpt lat="45.39041" lon="4.61447">
        <ele>1280.7017338927</ele>
        <time>2022-05-29T12:09:26.251Z</time>
      </trkpt>
      <trkpt lat="45.39036" lon="4.61453">
        <ele>1272.5113867366</ele>
        <time>2022-05-29T12:09:30.037Z</time>
      </trkpt>
      <trkpt lat="45.38937" lon="4.61556">
        <ele>1263.0628362467</ele>
        <time>2022-05-29T12:09:33.864Z</time>
      </trkpt>
      <trkpt lat="45.38913" lon="4.61577">
        <ele>1255.2917449864</ele>
        <time>2022-05-29T12:09:37.700Z</time>
      </trkpt>
      <trkpt lat="45.3891" lon="4.61584">
        <ele>1248.4107617966</ele>
        <time>2022-05-29T12:09:41.538Z</time>
      </trkpt>
      <trkpt lat="45.38906" lon="4.61591">
        <ele>1242.2392251142</ele>
        <time>2022-05-29T12:09:45.378Z</time>
      </trkpt>
      <trkpt lat="45.389" lon="4.61599">
        <ele>1236.8251098582</ele>
        <time>2022-05-29T12:09:49.221Z</time>
      </trkpt>
      <trkpt lat="45.38886" lon="4.61614">
        <ele>1232.1665306793</ele>
        <time>2022-05-29T12:09:53.070Z</time>
      </trkpt>
      <trkpt lat="45.38863" lon="4.6164">
        <ele>1228.1286318637</ele>
        <time>2022-05-29T12:09:56.929Z</time>
      </trkpt>
      <trkpt lat="45.38851" lon="4.61657">
        <ele>1224.8691034821</ele>
        <time>2022-05-29T12:10:00.793Z</time>
      </trkpt>
      <trkpt lat="45.38847" lon="4.61664">
        <ele>1222.3734732132</ele>
        <time>2022-05-29T12:10:04.659Z</time>
      </trkpt>
      <trkpt lat="45.38839" lon="4.61681">
        <ele>1220.5945900133</ele>
        <time>2022-05-29T12:10:08.530Z</time>
      </trkpt>
      <trkpt lat="45.38836" lon="4.61705">
        <ele>1219.3092637361</ele>
        <time>2022-05-29T12:10:12.407Z</time>
      </trkpt>
      <trkpt lat="45.38838" lon="4.6174">
        <ele>1218.1853728082</ele>
        <time>2022-05-29T12:10:16.292Z</time>
      </trkpt>
      <trkpt lat="45.38836" lon="4.61764">
        <ele>1217.7176686694</ele>
        <time>2022-05-29T12:10:20.183Z</time>
      </trkpt>
      <trkpt lat="45.38835" lon="4.61772">
        <ele>1217.5161486061</ele>
        <time>2022-05-29T12:10:24.076Z</time>
      </trkpt>
      <trkpt lat="45.38835" lon="4.61772">
        <ele>1217.4732113561</ele>
        <time>2022-05-29T12:10:27.969Z</time>
      </trkpt>
      <trkpt lat="45.38825" lon="4.61794">
        <ele>1217.6304275573</ele>
        <time>2022-05-29T12:10:31.868Z</time>
      </trkpt>
      <trkpt lat="45.38813" lon="4.61812">
        <ele>1217.7588741046</ele>
        <time>2022-05-29T12:10:35.773Z</time>
      </trkpt>
      <trkpt lat="45.38813" lon="4.61824">
        <ele>1217.6474137914</ele>
        <time>2022-05-29T12:10:39.681Z</time>
      </trkpt>
      <trkpt lat="45.38816" lon="4.61835">
        <ele>1217.3668059048</ele>
        <time>2022-05-29T12:10:43.591Z</time>
      </trkpt>
      <trkpt lat="45.38815" lon="4.61842">
        <ele>1217.0175990375</ele>
        <time>2022-05-29T12:10:47.503Z</time>
      </trkpt>
      <trkpt lat="45.38824" lon="4.61853">
        <ele>1216.3130741365</ele>
        <time>2022-05-29T12:10:51.419Z</time>
      </trkpt>
      <trkpt lat="45.3883" lon="4.61854">
        <ele>1215.5529302596</ele>
        <time>2022-05-29T12:10:55.337Z</time>
      </trkpt>
      <trkpt lat="45.38834" lon="4.6186">
        <ele>1214.6435526124</ele>
        <time>2022-05-29T12:10:59.257Z</time>
      </trkpt>
      <trkpt lat="45.38835" lon="4.61866">
        <ele>1213.6541009336</ele>
        <time>2022-05-29T12:11:03.178Z</time>
      </trkpt>
      <trkpt lat="45.38834" lon="4.6189">
        <ele>1212.5421782045</ele>
        <time>2022-05-29T12:11:07.105Z</time>
      </trkpt>
      <trkpt lat="45.38845" lon="4.61911">
        <ele>1211.1831032555</ele>
        <time>2022-05-29T12:11:11.038Z</time>
      </trkpt>
      <trkpt lat="45.38847" lon="4.6192">
        <ele>1209.9607734474</ele>
        <time>2022-05-29T12:11:14.973Z</time>
      </trkpt>
      <trkpt lat="45.38846" lon="4.61924">
        <ele>1208.7826612</ele>
        <time>2022-05-29T12:11:18.909Z</time>
      </trkpt>
      <trkpt lat="45.38847" lon="4.61929">
        <ele>1207.5740895605</ele>
        <time>2022-05-29T12:11:22.847Z</time>
      </trkpt>
      <trkpt lat="45.38847" lon="4.6194">
        <ele>1206.3513611354</ele>
        <time>2022-05-29T12:11:26.787Z</time>
      </trkpt>
      <trkpt lat="45.38845" lon="4.61951">
        <ele>1205.1674988154</ele>
        <time>2022-05-29T12:11:30.730Z</time>
      </trkpt>
      <trkpt lat="45.38842" lon="4.61959">
        <ele>1204.0469992667</ele>
        <time>2022-05-29T12:11:34.675Z</time>
      </trkpt>
      <trkpt lat="45.3884" lon="4.61971">
        <ele>1202.8998215579</ele>
        <time>2022-05-29T12:11:38.623Z</time>
      </trkpt>
      <trkpt lat="45.38837" lon="4.61975">
        <ele>1201.7650483815</ele>
        <time>2022-05-29T12:11:42.572Z</time>
      </trkpt>
      <trkpt lat="45.38836" lon="4.61983">
        <ele>1200.5492653646</ele>
        <time>2022-05-29T12:11:46.523Z</time>
      </trkpt>
      <trkpt lat="45.38831" lon="4.6199">
        <ele>1199.2945511165</ele>
        <time>2022-05-29T12:11:50.476Z</time>
      </trkpt>
      <trkpt lat="45.38833" lon="4.62005">
        <ele>1197.8013860704</ele>
        <time>2022-05-29T12:11:54.433Z</time>
      </trkpt>
      <trkpt lat="45.38847" lon="4.6201">
        <ele>1196.2388443482</ele>
        <time>2022-05-29T12:11:58.395Z</time>
      </trkpt>
      <trkpt lat="45.3885" lon="4.62003">
        <ele>1194.7808761467</ele>
        <time>2022-05-29T12:12:02.359Z</time>
      </trkpt>
      <trkpt lat="45.38858" lon="4.62001">
        <ele>1193.1146097192</ele>
        <time>2022-05-29T12:12:06.326Z</time>
      </trkpt>
      <trkpt lat="45.38866" lon="4.6201">
        <ele>1191.3553969803</ele>
        <time>2022-05-29T12:12:10.296Z</time>
      </trkpt>
      <trkpt lat="45.38868" lon="4.62022">
        <ele>1189.620537397</ele>
        <time>2022-05-29T12:12:14.269Z</time>
      </trkpt>
      <trkpt lat="45.38875" lon="4.62028">
        <ele>1187.8148511072</ele>
        <time>2022-05-29T12:12:18.245Z</time>
      </trkpt>
      <trkpt lat="45.38885" lon="4.62031">
        <ele>1185.947707015</ele>
        <time>2022-05-29T12:12:22.224Z</time>
      </trkpt>
      <trkpt lat="45.38892" lon="4.62048">
        <ele>1184.0419138227</ele>
        <time>2022-05-29T12:12:26.208Z</time>
      </trkpt>
      <trkpt lat="45.38895" lon="4.62059">
        <ele>1182.2970182923</ele>
        <time>2022-05-29T12:12:30.194Z</time>
      </trkpt>
      <trkpt lat="45.38897" lon="4.6206">
        <ele>1180.6947285476</ele>
        <time>2022-05-29T12:12:34.181Z</time>
      </trkpt>
      <trkpt lat="45.38897" lon="4.62064">
        <ele>1179.1953248807</ele>
        <time>2022-05-29T12:12:38.169Z</time>
      </trkpt>
      <trkpt lat="45.38893" lon="4.62073">
        <ele>1177.8256180173</ele>
        <time>2022-05-29T12:12:42.159Z</time>
      </trkpt>
      <trkpt lat="45.38895" lon="4.62079">
        <ele>1176.3949324195</ele>
        <time>2022-05-29T12:12:46.151Z</time>
      </trkpt>
      <trkpt lat="45.38895" lon="4.62081">
        <ele>1175.0632210931</ele>
        <time>2022-05-29T12:12:50.144Z</time>
      </trkpt>
      <trkpt lat="45.38895" lon="4.62088">
        <ele>1173.7204798597</ele>
        <time>2022-05-29T12:12:54.138Z</time>
      </trkpt>
      <trkpt lat="45.38897" lon="4.62092">
        <ele>1172.3429049001</ele>
        <time>2022-05-29T12:12:58.133Z</time>
      </trkpt>
      <trkpt lat="45.38896" lon="4.62107">
        <ele>1170.9475781946</ele>
        <time>2022-05-29T12:13:02.132Z</time>
      </trkpt>
      <trkpt lat="45.38897" lon="4.6211">
        <ele>1169.5272555263</ele>
        <time>2022-05-29T12:13:06.132Z</time>
      </trkpt>
      <trkpt lat="45.38897" lon="4.62117">
        <ele>1168.050665316</ele>
        <time>2022-05-29T12:13:10.133Z</time>
      </trkpt>
      <trkpt lat="45.38898" lon="4.62127">
        <ele>1166.4935577328</ele>
        <time>2022-05-29T12:13:14.137Z</time>
      </trkpt>
      <trkpt lat="45.38902" lon="4.62131">
        <ele>1164.8196626331</ele>
        <time>2022-05-29T12:13:18.142Z</time>
      </trkpt>
      <trkpt lat="45.38904" lon="4.6214">
        <ele>1163.11244615</ele>
        <time>2022-05-29T12:13:22.149Z</time>
      </trkpt>
      <trkpt lat="45.38909" lon="4.62147">
        <ele>1161.2876959682</ele>
        <time>2022-05-29T12:13:26.159Z</time>
      </trkpt>
      <trkpt lat="45.38911" lon="4.62155">
        <ele>1159.4660956831</ele>
        <time>2022-05-29T12:13:30.171Z</time>
      </trkpt>
      <trkpt lat="45.38914" lon="4.62159">
        <ele>1157.649772843</ele>
        <time>2022-05-29T12:13:34.184Z</time>
      </trkpt>
      <trkpt lat="45.38914" lon="4.62182">
        <ele>1155.7631415007</ele>
        <time>2022-05-29T12:13:38.203Z</time>
      </trkpt>
      <trkpt lat="45.38919" lon="4.62197">
        <ele>1153.9072051095</ele>
        <time>2022-05-29T12:13:42.226Z</time>
      </trkpt>
      <trkpt lat="45.38914" lon="4.62214">
        <ele>1152.3914445213</ele>
        <time>2022-05-29T12:13:46.253Z</time>
      </trkpt>
      <trkpt lat="45.38915" lon="4.62233">
        <ele>1150.933655942</ele>
        <time>2022-05-29T12:13:50.284Z</time>
      </trkpt>
      <trkpt lat="45.38919" lon="4.62244">
        <ele>1149.5297182552</ele>
        <time>2022-05-29T12:13:54.318Z</time>
      </trkpt>
      <trkpt lat="45.3892" lon="4.62255">
        <ele>1148.3035305404</ele>
        <time>2022-05-29T12:13:58.355Z</time>
      </trkpt>
      <trkpt lat="45.38923" lon="4.62261">
        <ele>1147.235856509</ele>
        <time>2022-05-29T12:14:02.394Z</time>
      </trkpt>
      <trkpt lat="45.38926" lon="4.62285">
        <ele>1146.3039131703</ele>
        <time>2022-05-29T12:14:06.438Z</time>
      </trkpt>
      <trkpt lat="45.38929" lon="4.62293">
        <ele>1145.6597616771</ele>
        <time>2022-05-29T12:14:10.484Z</time>
      </trkpt>
      <trkpt lat="45.38929" lon="4.62297">
        <ele>1145.2598029348</ele>
        <time>2022-05-29T12:14:14.531Z</time>
      </trkpt>
      <trkpt lat="45.38926" lon="4.62304">
        <ele>1145.1213759334</ele>
        <time>2022-05-29T12:14:18.580Z</time>
      </trkpt>
      <trkpt lat="45.38928" lon="4.62315">
        <ele>1145.1441027211</ele>
        <time>2022-05-29T12:14:22.632Z</time>
      </trkpt>
      <trkpt lat="45.38927" lon="4.62317">
        <ele>1145.3936779957</ele>
        <time>2022-05-29T12:14:26.685Z</time>
      </trkpt>
      <trkpt lat="45.3893" lon="4.62326">
        <ele>1145.8122105382</ele>
        <time>2022-05-29T12:14:30.740Z</time>
      </trkpt>
      <trkpt lat="45.38928" lon="4.62341">
        <ele>1146.506878753</ele>
        <time>2022-05-29T12:14:34.798Z</time>
      </trkpt>
      <trkpt lat="45.38933" lon="4.62352">
        <ele>1147.285633181</ele>
        <time>2022-05-29T12:14:38.860Z</time>
      </trkpt>
      <trkpt lat="45.38932" lon="4.62356">
        <ele>1148.2924773173</ele>
        <time>2022-05-29T12:14:42.923Z</time>
      </trkpt>
      <trkpt lat="45.38927" lon="4.62359">
        <ele>1149.5019798412</ele>
        <time>2022-05-29T12:14:46.987Z</time>
      </trkpt>
      <trkpt lat="45.38923" lon="4.62365">
        <ele>1150.8381237659</ele>
        <time>2022-05-29T12:14:51.053Z</time>
      </trkpt>
      <trkpt lat="45.38919" lon="4.62364">
        <ele>1152.2601611052</ele>
        <time>2022-05-29T12:14:55.121Z</time>
      </trkpt>
      <trkpt lat="45.38915" lon="4.6237">
        <ele>1153.7783002615</ele>
        <time>2022-05-29T12:14:59.191Z</time>
      </trkpt>
      <trkpt lat="45.38908" lon="4.62392">
        <ele>1155.3848887707</ele>
        <time>2022-05-29T12:15:03.266Z</time>
      </trkpt>
      <trkpt lat="45.38909" lon="4.62393">
        <ele>1156.8961294946</ele>
        <time>2022-05-29T12:15:07.342Z</time>
      </trkpt>
      <trkpt lat="45.38905" lon="4.62403">
        <ele>1158.5153241072</ele>
        <time>2022-05-29T12:15:11.420Z</time>
      </trkpt>
      <trkpt lat="45.38906" lon="4.62449">
        <ele>1160.1921563171</ele>
        <time>2022-05-29T12:15:15.509Z</time>
      </trkpt>
      <trkpt lat="45.389" lon="4.62463">
        <ele>1161.7725049498</ele>
        <time>2022-05-29T12:15:19.602Z</time>
      </trkpt>
      <trkpt lat="45.38902" lon="4.62469">
        <ele>1163.0933690378</ele>
        <time>2022-05-29T12:15:23.697Z</time>
      </trkpt>
      <trkpt lat="45.38902" lon="4.62473">
        <ele>1164.3384468292</ele>
        <time>2022-05-29T12:15:27.793Z</time>
      </trkpt>
      <trkpt lat="45.38898" lon="4.6248">
        <ele>1165.5427858746</ele>
        <time>2022-05-29T12:15:31.891Z</time>
      </trkpt>
      <trkpt lat="45.38897" lon="4.62489">
        <ele>1166.6063421606</ele>
        <time>2022-05-29T12:15:35.991Z</time>
      </trkpt>
      <trkpt lat="45.38902" lon="4.62496">
        <ele>1167.4849976525</ele>
        <time>2022-05-29T12:15:40.093Z</time>
      </trkpt>
      <trkpt lat="45.38903" lon="4.62498">
        <ele>1168.3454936694</ele>
        <time>2022-05-29T12:15:44.196Z</time>
      </trkpt>
      <trkpt lat="45.38905" lon="4.62505">
        <ele>1169.1568341092</ele>
        <time>2022-05-29T12:15:48.300Z</time>
      </trkpt>
      <trkpt lat="45.38913" lon="4.62513">
        <ele>1169.8556749775</ele>
        <time>2022-05-29T12:15:52.408Z</time>
      </trkpt>
      <trkpt lat="45.38915" lon="4.62518">
        <ele>1170.638647736</ele>
        <time>2022-05-29T12:15:56.517Z</time>
      </trkpt>
      <trkpt lat="45.38913" lon="4.62525">
        <ele>1171.4991665034</ele>
        <time>2022-05-29T12:16:00.628Z</time>
      </trkpt>
      <trkpt lat="45.38901" lon="4.62554">
        <ele>1172.5524857301</ele>
        <time>2022-05-29T12:16:04.747Z</time>
      </trkpt>
      <trkpt lat="45.38898" lon="4.62579">
        <ele>1173.4753557675</ele>
        <time>2022-05-29T12:16:08.872Z</time>
      </trkpt>
      <trkpt lat="45.38891" lon="4.62591">
        <ele>1174.4064647721</ele>
        <time>2022-05-29T12:16:13.000Z</time>
      </trkpt>
      <trkpt lat="45.38891" lon="4.62598">
        <ele>1175.1583416372</ele>
        <time>2022-05-29T12:16:17.130Z</time>
      </trkpt>
      <trkpt lat="45.38884" lon="4.62617">
        <ele>1175.9815204699</ele>
        <time>2022-05-29T12:16:21.265Z</time>
      </trkpt>
      <trkpt lat="45.38881" lon="4.62619">
        <ele>1176.5970758099</ele>
        <time>2022-05-29T12:16:25.401Z</time>
      </trkpt>
      <trkpt lat="45.38881" lon="4.62624">
        <ele>1177.0870513872</ele>
        <time>2022-05-29T12:16:29.538Z</time>
      </trkpt>
      <trkpt lat="45.3887" lon="4.62639">
        <ele>1177.3791452113</ele>
        <time>2022-05-29T12:16:33.680Z</time>
      </trkpt>
      <trkpt lat="45.38868" lon="4.62638">
        <ele>1177.6545131292</ele>
        <time>2022-05-29T12:16:37.823Z</time>
      </trkpt>
      <trkpt lat="45.38863" lon="4.6264">
        <ele>1177.8376991274</ele>
        <time>2022-05-29T12:16:41.968Z</time>
      </trkpt>
      <trkpt lat="45.38859" lon="4.6265">
        <ele>1178.0056090009</ele>
        <time>2022-05-29T12:16:46.116Z</time>
      </trkpt>
      <trkpt lat="45.38855" lon="4.6265">
        <ele>1178.1255993092</ele>
        <time>2022-05-29T12:16:50.265Z</time>
      </trkpt>
      <trkpt lat="45.38849" lon="4.62666">
        <ele>1178.2516575774</ele>
        <time>2022-05-29T12:16:54.418Z</time>
      </trkpt>
      <trkpt lat="45.38852" lon="4.62671">
        <ele>1178.4604119921</ele>
        <time>2022-05-29T12:16:58.573Z</time>
      </trkpt>
      <trkpt lat="45.38853" lon="4.62681">
        <ele>1178.7140939853</ele>
        <time>2022-05-29T12:17:02.730Z</time>
      </trkpt>
      <trkpt lat="45.38849" lon="4.62706">
        <ele>1179.0405049584</ele>
        <time>2022-05-29T12:17:06.893Z</time>
      </trkpt>
      <trkpt lat="45.38841" lon="4.62711">
        <ele>1179.1611128803</ele>
        <time>2022-05-29T12:17:11.059Z</time>
      </trkpt>
      <trkpt lat="45.38839" lon="4.62714">
        <ele>1179.3140646598</ele>
        <time>2022-05-29T12:17:15.226Z</time>
      </trkpt>
      <trkpt lat="45.38839" lon="4.62721">
        <ele>1179.456677942</ele>
        <time>2022-05-29T12:17:19.395Z</time>
      </trkpt>
      <trkpt lat="45.38837" lon="4.62737">
        <ele>1179.5485333797</ele>
        <time>2022-05-29T12:17:23.567Z</time>
      </trkpt>
      <trkpt lat="45.38834" lon="4.62741">
        <ele>1179.6920205364</ele>
        <time>2022-05-29T12:17:27.741Z</time>
      </trkpt>
      <trkpt lat="45.38833" lon="4.62756">
        <ele>1179.9105514686</ele>
        <time>2022-05-29T12:17:31.918Z</time>
      </trkpt>
      <trkpt lat="45.38831" lon="4.62762">
        <ele>1180.0384369631</ele>
        <time>2022-05-29T12:17:36.097Z</time>
      </trkpt>
      <trkpt lat="45.38826" lon="4.62766">
        <ele>1180.1109674423</ele>
        <time>2022-05-29T12:17:40.278Z</time>
      </trkpt>
      <trkpt lat="45.38824" lon="4.62774">
        <ele>1180.1224550148</ele>
        <time>2022-05-29T12:17:44.461Z</time>
      </trkpt>
      <trkpt lat="45.38822" lon="4.62786">
        <ele>1180.0662332833</ele>
        <time>2022-05-29T12:17:48.647Z</time>
      </trkpt>
      <trkpt lat="45.38822" lon="4.62798">
        <ele>1179.7516646284</ele>
        <time>2022-05-29T12:17:52.836Z</time>
      </trkpt>
      <trkpt lat="45.38825" lon="4.62802">
        <ele>1179.3944030465</ele>
        <time>2022-05-29T12:17:57.026Z</time>
      </trkpt>
      <trkpt lat="45.38824" lon="4.62814">
        <ele>1178.9410163323</ele>
        <time>2022-05-29T12:18:01.219Z</time>
      </trkpt>
      <trkpt lat="45.38821" lon="4.62823">
        <ele>1178.5304211459</ele>
        <time>2022-05-29T12:18:05.414Z</time>
      </trkpt>
      <trkpt lat="45.38825" lon="4.62836">
        <ele>1177.9989352119</ele>
        <time>2022-05-29T12:18:09.612Z</time>
      </trkpt>
      <trkpt lat="45.38825" lon="4.62837">
        <ele>1177.5022013959</ele>
        <time>2022-05-29T12:18:13.811Z</time>
      </trkpt>
      <trkpt lat="45.38827" lon="4.62852">
        <ele>1176.9958534832</ele>
        <time>2022-05-29T12:18:18.013Z</time>
      </trkpt>
      <trkpt lat="45.38842" lon="4.6287">
        <ele>1176.3698674612</ele>
        <time>2022-05-29T12:18:22.222Z</time>
      </trkpt>
      <trkpt lat="45.38845" lon="4.62877">
        <ele>1175.9240106107</ele>
        <time>2022-05-29T12:18:26.433Z</time>
      </trkpt>
      <trkpt lat="45.38846" lon="4.62884">
        <ele>1175.6129996266</ele>
        <time>2022-05-29T12:18:30.645Z</time>
      </trkpt>
      <trkpt lat="45.38846" lon="4.62888">
        <ele>1175.4681711702</ele>
        <time>2022-05-29T12:18:34.858Z</time>
      </trkpt>
      <trkpt lat="45.38845" lon="4.62898">
        <ele>1175.432154535</ele>
        <time>2022-05-29T12:18:39.074Z</time>
      </trkpt>
      <trkpt lat="45.38839" lon="4.62915">
        <ele>1175.5545488867</ele>
        <time>2022-05-29T12:18:43.294Z</time>
      </trkpt>
      <trkpt lat="45.38834" lon="4.62928">
        <ele>1175.84423408</ele>
        <time>2022-05-29T12:18:47.518Z</time>
      </trkpt>
      <trkpt lat="45.38831" lon="4.62949">
        <ele>1176.1515988726</ele>
        <time>2022-05-29T12:18:51.747Z</time>
      </trkpt>
      <trkpt lat="45.38824" lon="4.62932">
        <ele>1176.7488496519</ele>
        <time>2022-05-29T12:18:55.980Z</time>
      </trkpt>
      <trkpt lat="45.38813" lon="4.6293">
        <ele>1177.2959746116</ele>
        <time>2022-05-29T12:19:00.217Z</time>
      </trkpt>
      <trkpt lat="45.38806" lon="4.62929">
        <ele>1177.6701177304</ele>
        <time>2022-05-29T12:19:04.456Z</time>
      </trkpt>
      <trkpt lat="45.38769" lon="4.62915">
        <ele>1177.6658580789</ele>
        <time>2022-05-29T12:19:08.708Z</time>
      </trkpt>
      <trkpt lat="45.38767" lon="4.62912">
        <ele>1177.4795590834</ele>
        <time>2022-05-29T12:19:12.961Z</time>
      </trkpt>
      <trkpt lat="45.38762" lon="4.62906">
        <ele>1176.9555900426</ele>
        <time>2022-05-29T12:19:17.216Z</time>
      </trkpt>
      <trkpt lat="45.38756" lon="4.62911">
        <ele>1175.9850228972</ele>
        <time>2022-05-29T12:19:21.474Z</time>
      </trkpt>
      <trkpt lat="45.38753" lon="4.62914">
        <ele>1174.6304140276</ele>
        <time>2022-05-29T12:19:25.733Z</time>
      </trkpt>
      <trkpt lat="45.38747" lon="4.62937">
        <ele>1172.7115226685</ele>
        <time>2022-05-29T12:19:29.998Z</time>
      </trkpt>
      <trkpt lat="45.38731" lon="4.62951">
        <ele>1170.2695010701</ele>
        <time>2022-05-29T12:19:34.269Z</time>
      </trkpt>
      <trkpt lat="45.38717" lon="4.62961">
        <ele>1167.3450105168</ele>
        <time>2022-05-29T12:19:38.545Z</time>
      </trkpt>
      <trkpt lat="45.38709" lon="4.62979">
        <ele>1163.8550362461</ele>
        <time>2022-05-29T12:19:42.826Z</time>
      </trkpt>
      <trkpt lat="45.38708" lon="4.62981">
        <ele>1160.1482046753</ele>
        <time>2022-05-29T12:19:47.108Z</time>
      </trkpt>
      <trkpt lat="45.38699" lon="4.62991">
        <ele>1155.7920549106</ele>
        <time>2022-05-29T12:19:51.393Z</time>
      </trkpt>
      <trkpt lat="45.38683" lon="4.63019">
        <ele>1150.7563232719</ele>
        <time>2022-05-29T12:19:55.687Z</time>
      </trkpt>
      <trkpt lat="45.38674" lon="4.6303">
        <ele>1145.6278410017</ele>
        <time>2022-05-29T12:19:59.985Z</time>
      </trkpt>
      <trkpt lat="45.3867" lon="4.63035">
        <ele>1140.3212881874</ele>
        <time>2022-05-29T12:20:04.285Z</time>
      </trkpt>
      <trkpt lat="45.38668" lon="4.63028">
        <ele>1134.8544804658</ele>
        <time>2022-05-29T12:20:08.586Z</time>
      </trkpt>
      <trkpt lat="45.38661" lon="4.6304">
        <ele>1128.872628306</ele>
        <time>2022-05-29T12:20:12.891Z</time>
      </trkpt>
      <trkpt lat="45.38647" lon="4.63048">
        <ele>1122.5466821011</ele>
        <time>2022-05-29T12:20:17.201Z</time>
      </trkpt>
      <trkpt lat="45.38644" lon="4.63058">
        <ele>1116.2148015922</ele>
        <time>2022-05-29T12:20:21.514Z</time>
      </trkpt>
      <trkpt lat="45.38625" lon="4.63076">
        <ele>1109.3799670873</ele>
        <time>2022-05-29T12:20:25.834Z</time>
      </trkpt>
      <trkpt lat="45.38607" lon="4.63102">
        <ele>1102.4001571898</ele>
        <time>2022-05-29T12:20:30.163Z</time>
      </trkpt>
      <trkpt lat="45.38585" lon="4.63123">
        <ele>1095.3895630295</ele>
        <time>2022-05-29T12:20:34.501Z</time>
      </trkpt>
      <trkpt lat="45.38572" lon="4.63131">
        <ele>1088.6136812615</ele>
        <time>2022-05-29T12:20:38.843Z</time>
      </trkpt>
      <trkpt lat="45.38551" lon="4.63158">
        <ele>1081.7194391185</ele>
        <time>2022-05-29T12:20:43.195Z</time>
      </trkpt>
      <trkpt lat="45.38529" lon="4.63166">
        <ele>1075.0455598635</ele>
        <time>2022-05-29T12:20:47.554Z</time>
      </trkpt>
      <trkpt lat="45.38525" lon="4.6317">
        <ele>1068.8096370596</ele>
        <time>2022-05-29T12:20:51.915Z</time>
      </trkpt>
      <trkpt lat="45.38525" lon="4.63176">
        <ele>1062.780874318</ele>
        <time>2022-05-29T12:20:56.277Z</time>
      </trkpt>
      <trkpt lat="45.38524" lon="4.63186">
        <ele>1056.8733979573</ele>
        <time>2022-05-29T12:21:00.642Z</time>
      </trkpt>
      <trkpt lat="45.38505" lon="4.63224">
        <ele>1050.8210673584</ele>
        <time>2022-05-29T12:21:05.018Z</time>
      </trkpt>
      <trkpt lat="45.38486" lon="4.63244">
        <ele>1044.9025733321</ele>
        <time>2022-05-29T12:21:09.402Z</time>
      </trkpt>
      <trkpt lat="45.38454" lon="4.63261">
        <ele>1038.90823089</ele>
        <time>2022-05-29T12:21:13.797Z</time>
      </trkpt>
      <trkpt lat="45.38442" lon="4.63265">
        <ele>1033.3795792515</ele>
        <time>2022-05-29T12:21:18.196Z</time>
      </trkpt>
      <trkpt lat="45.38429" lon="4.63269">
        <ele>1028.0178499174</ele>
        <time>2022-05-29T12:21:22.600Z</time>
      </trkpt>
      <trkpt lat="45.38395" lon="4.63273">
        <ele>1022.5591693595</ele>
        <time>2022-05-29T12:21:27.015Z</time>
      </trkpt>
      <trkpt lat="45.3839" lon="4.63276">
        <ele>1017.6471031134</ele>
        <time>2022-05-29T12:21:31.432Z</time>
      </trkpt>
      <trkpt lat="45.38374" lon="4.63284">
        <ele>1012.8048734039</ele>
        <time>2022-05-29T12:21:35.854Z</time>
      </trkpt>
      <trkpt lat="45.3837" lon="4.63279">
        <ele>1008.3008682203</ele>
        <time>2022-05-29T12:21:40.278Z</time>
      </trkpt>
      <trkpt lat="45.38344" lon="4.63286">
        <ele>1003.8316979659</ele>
        <time>2022-05-29T12:21:44.711Z</time>
      </trkpt>
      <trkpt lat="45.38274" lon="4.6332">
        <ele>999.15089175895</ele>
        <time>2022-05-29T12:21:49.169Z</time>
      </trkpt>
      <trkpt lat="45.38266" lon="4.63321">
        <ele>995.40699066737</ele>
        <time>2022-05-29T12:21:53.629Z</time>
      </trkpt>
      <trkpt lat="45.38257" lon="4.63322">
        <ele>991.97489423001</ele>
        <time>2022-05-29T12:21:58.092Z</time>
      </trkpt>
      <trkpt lat="45.38244" lon="4.63312">
        <ele>988.86060714469</ele>
        <time>2022-05-29T12:22:02.560Z</time>
      </trkpt>
      <trkpt lat="45.38232" lon="4.6331">
        <ele>986.09182220435</ele>
        <time>2022-05-29T12:22:07.032Z</time>
      </trkpt>
      <trkpt lat="45.38178" lon="4.63319">
        <ele>983.37784931208</ele>
        <time>2022-05-29T12:22:11.523Z</time>
      </trkpt>
      <trkpt lat="45.38158" lon="4.63331">
        <ele>981.20150528304</ele>
        <time>2022-05-29T12:22:16.021Z</time>
      </trkpt>
      <trkpt lat="45.38127" lon="4.63338">
        <ele>979.26801615346</ele>
        <time>2022-05-29T12:22:20.529Z</time>
      </trkpt>
      <trkpt lat="45.3812" lon="4.63345">
        <ele>977.82164837944</ele>
        <time>2022-05-29T12:22:25.040Z</time>
      </trkpt>
      <trkpt lat="45.38114" lon="4.63361">
        <ele>976.67443837055</ele>
        <time>2022-05-29T12:22:29.555Z</time>
      </trkpt>
      <trkpt lat="45.38088" lon="4.63387">
        <ele>975.50925699553</ele>
        <time>2022-05-29T12:22:34.081Z</time>
      </trkpt>
      <trkpt lat="45.38074" lon="4.63389">
        <ele>974.675280565</ele>
        <time>2022-05-29T12:22:38.612Z</time>
      </trkpt>
      <trkpt lat="45.3806" lon="4.63383">
        <ele>974.01379772271</ele>
        <time>2022-05-29T12:22:43.148Z</time>
      </trkpt>
      <trkpt lat="45.38045" lon="4.63381">
        <ele>973.39099841799</ele>
        <time>2022-05-29T12:22:47.689Z</time>
      </trkpt>
      <trkpt lat="45.38032" lon="4.63377">
        <ele>972.67483425291</ele>
        <time>2022-05-29T12:22:52.234Z</time>
      </trkpt>
      <trkpt lat="45.38023" lon="4.6337">
        <ele>971.78851554698</ele>
        <time>2022-05-29T12:22:56.782Z</time>
      </trkpt>
      <trkpt lat="45.38018" lon="4.63401">
        <ele>970.5599665379</ele>
        <time>2022-05-29T12:23:01.338Z</time>
      </trkpt>
      <trkpt lat="45.38025" lon="4.6342">
        <ele>968.98673957814</ele>
        <time>2022-05-29T12:23:05.899Z</time>
      </trkpt>
      <trkpt lat="45.38024" lon="4.6344">
        <ele>966.96833672596</ele>
        <time>2022-05-29T12:23:10.465Z</time>
      </trkpt>
      <trkpt lat="45.38013" lon="4.6346">
        <ele>964.39479208177</ele>
        <time>2022-05-29T12:23:15.037Z</time>
      </trkpt>
      <trkpt lat="45.38009" lon="4.63502">
        <ele>961.00620845585</ele>
        <time>2022-05-29T12:23:19.619Z</time>
      </trkpt>
      <trkpt lat="45.38019" lon="4.63545">
        <ele>956.93865311387</ele>
        <time>2022-05-29T12:23:24.211Z</time>
      </trkpt>
      <trkpt lat="45.38028" lon="4.63574">
        <ele>952.16472951872</ele>
        <time>2022-05-29T12:23:28.811Z</time>
      </trkpt>
      <trkpt lat="45.38029" lon="4.63579">
        <ele>947.07029487742</ele>
        <time>2022-05-29T12:23:33.412Z</time>
      </trkpt>
      <trkpt lat="45.38006" lon="4.63647">
        <ele>940.82413161156</ele>
        <time>2022-05-29T12:23:38.031Z</time>
      </trkpt>
      <trkpt lat="45.37989" lon="4.6369">
        <ele>934.23081859661</ele>
        <time>2022-05-29T12:23:42.661Z</time>
      </trkpt>
      <trkpt lat="45.37995" lon="4.63723">
        <ele>927.30755038191</ele>
        <time>2022-05-29T12:23:47.299Z</time>
      </trkpt>
      <trkpt lat="45.37998" lon="4.63759">
        <ele>920.01673187935</ele>
        <time>2022-05-29T12:23:51.946Z</time>
      </trkpt>
      <trkpt lat="45.37971" lon="4.63773">
        <ele>912.77723822314</ele>
        <time>2022-05-29T12:23:56.602Z</time>
      </trkpt>
      <trkpt lat="45.37955" lon="4.63785">
        <ele>905.29558185294</ele>
        <time>2022-05-29T12:24:01.264Z</time>
      </trkpt>
      <trkpt lat="45.3793" lon="4.63795">
        <ele>897.63586874311</ele>
        <time>2022-05-29T12:24:05.935Z</time>
      </trkpt>
      <trkpt lat="45.37906" lon="4.63828">
        <ele>889.60093111285</ele>
        <time>2022-05-29T12:24:10.617Z</time>
      </trkpt>
      <trkpt lat="45.37882" lon="4.6385">
        <ele>881.65427699647</ele>
        <time>2022-05-29T12:24:15.309Z</time>
      </trkpt>
      <trkpt lat="45.37875" lon="4.63859">
        <ele>873.82853068553</ele>
        <time>2022-05-29T12:24:20.004Z</time>
      </trkpt>
      <trkpt lat="45.37865" lon="4.63866">
        <ele>866.06187142753</ele>
        <time>2022-05-29T12:24:24.702Z</time>
      </trkpt>
      <trkpt lat="45.37833" lon="4.63873">
        <ele>858.18188524962</ele>
        <time>2022-05-29T12:24:29.411Z</time>
      </trkpt>
      <trkpt lat="45.37814" lon="4.6388">
        <ele>850.54574571234</ele>
        <time>2022-05-29T12:24:34.127Z</time>
      </trkpt>
      <trkpt lat="45.37789" lon="4.63898">
        <ele>842.94531167033</ele>
        <time>2022-05-29T12:24:38.852Z</time>
      </trkpt>
      <trkpt lat="45.37781" lon="4.63907">
        <ele>835.87586496077</ele>
        <time>2022-05-29T12:24:43.581Z</time>
      </trkpt>
      <trkpt lat="45.37758" lon="4.63954">
        <ele>828.76452940793</ele>
        <time>2022-05-29T12:24:48.323Z</time>
      </trkpt>
      <trkpt lat="45.3772" lon="4.64018">
        <ele>822.09044728154</ele>
        <time>2022-05-29T12:24:53.085Z</time>
      </trkpt>
      <trkpt lat="45.37708" lon="4.64035">
        <ele>816.58890605462</ele>
        <time>2022-05-29T12:24:57.852Z</time>
      </trkpt>
      <trkpt lat="45.37704" lon="4.64038">
        <ele>811.85005296737</ele>
        <time>2022-05-29T12:25:02.621Z</time>
      </trkpt>
      <trkpt lat="45.377" lon="4.64047">
        <ele>807.75885061806</ele>
        <time>2022-05-29T12:25:07.392Z</time>
      </trkpt>
      <trkpt lat="45.37702" lon="4.6406">
        <ele>804.37119969296</ele>
        <time>2022-05-29T12:25:12.166Z</time>
      </trkpt>
      <trkpt lat="45.37701" lon="4.64078">
        <ele>801.59708656578</ele>
        <time>2022-05-29T12:25:16.945Z</time>
      </trkpt>
      <trkpt lat="45.37699" lon="4.64089">
        <ele>799.47429352887</ele>
        <time>2022-05-29T12:25:21.726Z</time>
      </trkpt>
      <trkpt lat="45.37696" lon="4.64095">
        <ele>797.95100371514</ele>
        <time>2022-05-29T12:25:26.509Z</time>
      </trkpt>
      <trkpt lat="45.37691" lon="4.641">
        <ele>796.97127690075</ele>
        <time>2022-05-29T12:25:31.294Z</time>
      </trkpt>
      <trkpt lat="45.37696" lon="4.64095">
        <ele>797.95100371514</ele>
        <time>2022-05-29T12:25:36.081Z</time>
      </trkpt>
      <trkpt lat="45.37699" lon="4.64089">
        <ele>799.47429352887</ele>
        <time>2022-05-29T12:25:40.870Z</time>
      </trkpt>
      <trkpt lat="45.37701" lon="4.64078">
        <ele>801.59708656578</ele>
        <time>2022-05-29T12:25:45.662Z</time>
      </trkpt>
      <trkpt lat="45.37702" lon="4.6406">
        <ele>804.37119969296</ele>
        <time>2022-05-29T12:25:50.458Z</time>
      </trkpt>
      <trkpt lat="45.377" lon="4.64047">
        <ele>807.75885061806</ele>
        <time>2022-05-29T12:25:55.257Z</time>
      </trkpt>
      <trkpt lat="45.37704" lon="4.64038">
        <ele>811.85005296737</ele>
        <time>2022-05-29T12:26:00.058Z</time>
      </trkpt>
      <trkpt lat="45.37708" lon="4.64035">
        <ele>816.58890605462</ele>
        <time>2022-05-29T12:26:04.861Z</time>
      </trkpt>
      <trkpt lat="45.37717" lon="4.64048">
        <ele>802.02946279876</ele>
        <time>2022-05-29T12:26:09.668Z</time>
      </trkpt>
      <trkpt lat="45.37716" lon="4.64056">
        <ele>803.49328791784</ele>
        <time>2022-05-29T12:26:14.477Z</time>
      </trkpt>
      <trkpt lat="45.37713" lon="4.64081">
        <ele>805.05198989075</ele>
        <time>2022-05-29T12:26:19.292Z</time>
      </trkpt>
      <trkpt lat="45.37701" lon="4.64142">
        <ele>806.75623474509</ele>
        <time>2022-05-29T12:26:24.122Z</time>
      </trkpt>
      <trkpt lat="45.37699" lon="4.64175">
        <ele>808.90750035017</ele>
        <time>2022-05-29T12:26:28.960Z</time>
      </trkpt>
      <trkpt lat="45.37703" lon="4.6425">
        <ele>811.45270294097</ele>
        <time>2022-05-29T12:26:33.815Z</time>
      </trkpt>
      <trkpt lat="45.37707" lon="4.64276">
        <ele>814.18735166063</ele>
        <time>2022-05-29T12:26:38.677Z</time>
      </trkpt>
      <trkpt lat="45.37711" lon="4.64316">
        <ele>817.27693748462</ele>
        <time>2022-05-29T12:26:43.548Z</time>
      </trkpt>
      <trkpt lat="45.37711" lon="4.64316">
        <ele>820.40356199534</ele>
        <time>2022-05-29T12:26:48.419Z</time>
      </trkpt>
      <trkpt lat="45.37715" lon="4.64407">
        <ele>824.11223722351</ele>
        <time>2022-05-29T12:26:53.312Z</time>
      </trkpt>
      <trkpt lat="45.37699" lon="4.64471">
        <ele>827.76134216792</ele>
        <time>2022-05-29T12:26:58.221Z</time>
      </trkpt>
      <trkpt lat="45.3768" lon="4.64567">
        <ele>831.3763147626</ele>
        <time>2022-05-29T12:27:03.153Z</time>
      </trkpt>
      <trkpt lat="45.37672" lon="4.64628">
        <ele>834.80597655026</ele>
        <time>2022-05-29T12:27:08.100Z</time>
      </trkpt>
      <trkpt lat="45.37671" lon="4.6467">
        <ele>838.03376942368</ele>
        <time>2022-05-29T12:27:13.057Z</time>
      </trkpt>
      <trkpt lat="45.37662" lon="4.64706">
        <ele>841.20566717296</ele>
        <time>2022-05-29T12:27:18.023Z</time>
      </trkpt>
      <trkpt lat="45.37648" lon="4.64797">
        <ele>844.25084231105</ele>
        <time>2022-05-29T12:27:23.010Z</time>
      </trkpt>
      <trkpt lat="45.37657" lon="4.6487">
        <ele>846.52633600957</ele>
        <time>2022-05-29T12:27:28.015Z</time>
      </trkpt>
      <trkpt lat="45.37664" lon="4.64902">
        <ele>848.39501174704</ele>
        <time>2022-05-29T12:27:33.028Z</time>
      </trkpt>
      <trkpt lat="45.37669" lon="4.65012">
        <ele>849.87448931966</ele>
        <time>2022-05-29T12:27:38.067Z</time>
      </trkpt>
      <trkpt lat="45.37687" lon="4.65085">
        <ele>850.91081251792</ele>
        <time>2022-05-29T12:27:43.124Z</time>
      </trkpt>
      <trkpt lat="45.37688" lon="4.65133">
        <ele>851.61981810082</ele>
        <time>2022-05-29T12:27:48.192Z</time>
      </trkpt>
      <trkpt lat="45.37688" lon="4.65189">
        <ele>851.82030240373</ele>
        <time>2022-05-29T12:27:53.273Z</time>
      </trkpt>
      <trkpt lat="45.37693" lon="4.6522">
        <ele>851.40164715636</ele>
        <time>2022-05-29T12:27:58.362Z</time>
      </trkpt>
      <trkpt lat="45.37702" lon="4.65254">
        <ele>850.4800136522</ele>
        <time>2022-05-29T12:28:03.459Z</time>
      </trkpt>
      <trkpt lat="45.37704" lon="4.65282">
        <ele>849.08310725215</ele>
        <time>2022-05-29T12:28:08.563Z</time>
      </trkpt>
      <trkpt lat="45.37705" lon="4.65317">
        <ele>847.12661869732</ele>
        <time>2022-05-29T12:28:13.675Z</time>
      </trkpt>
      <trkpt lat="45.37703" lon="4.65411">
        <ele>844.55940136201</ele>
        <time>2022-05-29T12:28:18.809Z</time>
      </trkpt>
      <trkpt lat="45.37707" lon="4.6544">
        <ele>841.7069741227</ele>
        <time>2022-05-29T12:28:23.950Z</time>
      </trkpt>
      <trkpt lat="45.37709" lon="4.6547">
        <ele>838.42928977626</ele>
        <time>2022-05-29T12:28:29.098Z</time>
      </trkpt>
      <trkpt lat="45.37706" lon="4.65497">
        <ele>834.8423119985</ele>
        <time>2022-05-29T12:28:34.253Z</time>
      </trkpt>
      <trkpt lat="45.3771" lon="4.65522">
        <ele>830.98774832882</ele>
        <time>2022-05-29T12:28:39.414Z</time>
      </trkpt>
      <trkpt lat="45.37731" lon="4.65548">
        <ele>826.72877292125</ele>
        <time>2022-05-29T12:28:44.584Z</time>
      </trkpt>
      <trkpt lat="45.3773" lon="4.65575">
        <ele>822.54861497253</ele>
        <time>2022-05-29T12:28:49.760Z</time>
      </trkpt>
      <trkpt lat="45.37721" lon="4.65643">
        <ele>818.18943463742</ele>
        <time>2022-05-29T12:28:54.953Z</time>
      </trkpt>
      <trkpt lat="45.37721" lon="4.65671">
        <ele>813.89966074212</ele>
        <time>2022-05-29T12:29:00.152Z</time>
      </trkpt>
      <trkpt lat="45.37723" lon="4.65696">
        <ele>809.61164024826</ele>
        <time>2022-05-29T12:29:05.357Z</time>
      </trkpt>
      <trkpt lat="45.37742" lon="4.65782">
        <ele>804.90792927998</ele>
        <time>2022-05-29T12:29:10.583Z</time>
      </trkpt>
      <trkpt lat="45.37752" lon="4.65816">
        <ele>800.79871637908</ele>
        <time>2022-05-29T12:29:15.818Z</time>
      </trkpt>
      <trkpt lat="45.37769" lon="4.65863">
        <ele>796.69447936171</ele>
        <time>2022-05-29T12:29:21.065Z</time>
      </trkpt>
      <trkpt lat="45.37776" lon="4.65898">
        <ele>793.07532863843</ele>
        <time>2022-05-29T12:29:26.321Z</time>
      </trkpt>
      <trkpt lat="45.37775" lon="4.65921">
        <ele>789.7423507338</ele>
        <time>2022-05-29T12:29:31.582Z</time>
      </trkpt>
      <trkpt lat="45.37784" lon="4.65948">
        <ele>786.41983078817</ele>
        <time>2022-05-29T12:29:36.850Z</time>
      </trkpt>
      <trkpt lat="45.37787" lon="4.65971">
        <ele>783.22488612548</ele>
        <time>2022-05-29T12:29:42.124Z</time>
      </trkpt>
      <trkpt lat="45.37781" lon="4.65984">
        <ele>780.2066119533</ele>
        <time>2022-05-29T12:29:47.401Z</time>
      </trkpt>
      <trkpt lat="45.37767" lon="4.65996">
        <ele>777.27350731871</ele>
        <time>2022-05-29T12:29:52.684Z</time>
      </trkpt>
      <trkpt lat="45.37753" lon="4.66011">
        <ele>774.29621445263</ele>
        <time>2022-05-29T12:29:57.973Z</time>
      </trkpt>
      <trkpt lat="45.3775" lon="4.66028">
        <ele>771.26406803995</ele>
        <time>2022-05-29T12:30:03.266Z</time>
      </trkpt>
      <trkpt lat="45.37757" lon="4.66056">
        <ele>768.13155255678</ele>
        <time>2022-05-29T12:30:08.566Z</time>
      </trkpt>
      <trkpt lat="45.37767" lon="4.66126">
        <ele>764.69656120649</ele>
        <time>2022-05-29T12:30:13.883Z</time>
      </trkpt>
      <trkpt lat="45.37774" lon="4.66145">
        <ele>761.61725535089</ele>
        <time>2022-05-29T12:30:19.205Z</time>
      </trkpt>
      <trkpt lat="45.37777" lon="4.66147">
        <ele>758.63431247278</ele>
        <time>2022-05-29T12:30:24.528Z</time>
      </trkpt>
      <trkpt lat="45.37787" lon="4.66161">
        <ele>755.58590075385</ele>
        <time>2022-05-29T12:30:29.855Z</time>
      </trkpt>
      <trkpt lat="45.37793" lon="4.66179">
        <ele>752.5382348948</ele>
        <time>2022-05-29T12:30:35.187Z</time>
      </trkpt>
      <trkpt lat="45.37789" lon="4.66268">
        <ele>749.24015439523</ele>
        <time>2022-05-29T12:30:40.540Z</time>
      </trkpt>
      <trkpt lat="45.37799" lon="4.66298">
        <ele>746.34255521711</ele>
        <time>2022-05-29T12:30:45.901Z</time>
      </trkpt>
      <trkpt lat="45.37809" lon="4.66317">
        <ele>743.54560100751</ele>
        <time>2022-05-29T12:30:51.267Z</time>
      </trkpt>
      <trkpt lat="45.37819" lon="4.66328">
        <ele>740.9599463925</ele>
        <time>2022-05-29T12:30:56.638Z</time>
      </trkpt>
      <trkpt lat="45.3783" lon="4.66332">
        <ele>738.59942329835</ele>
        <time>2022-05-29T12:31:02.012Z</time>
      </trkpt>
      <trkpt lat="45.37866" lon="4.66333">
        <ele>736.26415365692</ele>
        <time>2022-05-29T12:31:07.398Z</time>
      </trkpt>
      <trkpt lat="45.37874" lon="4.66333">
        <ele>734.41275984013</ele>
        <time>2022-05-29T12:31:12.787Z</time>
      </trkpt>
      <trkpt lat="45.37878" lon="4.66328">
        <ele>732.85033364348</ele>
        <time>2022-05-29T12:31:18.178Z</time>
      </trkpt>
      <trkpt lat="45.3787" lon="4.66344">
        <ele>731.53294613576</ele>
        <time>2022-05-29T12:31:23.574Z</time>
      </trkpt>
      <trkpt lat="45.37849" lon="4.66384">
        <ele>730.38679517029</ele>
        <time>2022-05-29T12:31:28.981Z</time>
      </trkpt>
      <trkpt lat="45.37839" lon="4.6641">
        <ele>729.35943429019</ele>
        <time>2022-05-29T12:31:34.395Z</time>
      </trkpt>
      <trkpt lat="45.37826" lon="4.66436">
        <ele>728.29858606393</ele>
        <time>2022-05-29T12:31:39.817Z</time>
      </trkpt>
      <trkpt lat="45.37811" lon="4.66452">
        <ele>727.38904507649</ele>
        <time>2022-05-29T12:31:45.245Z</time>
      </trkpt>
      <trkpt lat="45.37791" lon="4.6646">
        <ele>726.55731485794</ele>
        <time>2022-05-29T12:31:50.680Z</time>
      </trkpt>
      <trkpt lat="45.37733" lon="4.66443">
        <ele>725.79571929158</ele>
        <time>2022-05-29T12:31:56.135Z</time>
      </trkpt>
      <trkpt lat="45.37714" lon="4.66434">
        <ele>724.86199474532</ele>
        <time>2022-05-29T12:32:01.596Z</time>
      </trkpt>
      <trkpt lat="45.37685" lon="4.66384">
        <ele>723.70641527213</ele>
        <time>2022-05-29T12:32:07.073Z</time>
      </trkpt>
      <trkpt lat="45.37642" lon="4.66321">
        <ele>722.07475213902</ele>
        <time>2022-05-29T12:32:12.570Z</time>
      </trkpt>
      <trkpt lat="45.37631" lon="4.66303">
        <ele>720.5253894737</ele>
        <time>2022-05-29T12:32:18.073Z</time>
      </trkpt>
      <trkpt lat="45.37616" lon="4.66292">
        <ele>718.7478575439</ele>
        <time>2022-05-29T12:32:23.581Z</time>
      </trkpt>
      <trkpt lat="45.37597" lon="4.66284">
        <ele>716.77281596697</ele>
        <time>2022-05-29T12:32:29.096Z</time>
      </trkpt>
      <trkpt lat="45.37586" lon="4.66287">
        <ele>714.71330698964</ele>
        <time>2022-05-29T12:32:34.615Z</time>
      </trkpt>
      <trkpt lat="45.37581" lon="4.66295">
        <ele>712.58433806094</ele>
        <time>2022-05-29T12:32:40.136Z</time>
      </trkpt>
      <trkpt lat="45.37575" lon="4.66311">
        <ele>710.2816385002</ele>
        <time>2022-05-29T12:32:45.661Z</time>
      </trkpt>
      <trkpt lat="45.3757" lon="4.66318">
        <ele>707.8446775709</ele>
        <time>2022-05-29T12:32:51.189Z</time>
      </trkpt>
      <trkpt lat="45.3756" lon="4.66314">
        <ele>705.22952210761</ele>
        <time>2022-05-29T12:32:56.720Z</time>
      </trkpt>
      <trkpt lat="45.37552" lon="4.66308">
        <ele>702.50735993662</ele>
        <time>2022-05-29T12:33:02.254Z</time>
      </trkpt>
      <trkpt lat="45.37533" lon="4.66286">
        <ele>699.59236003859</ele>
        <time>2022-05-29T12:33:07.796Z</time>
      </trkpt>
      <trkpt lat="45.37523" lon="4.66272">
        <ele>696.69314260775</ele>
        <time>2022-05-29T12:33:13.343Z</time>
      </trkpt>
      <trkpt lat="45.37509" lon="4.66264">
        <ele>693.53894361397</ele>
        <time>2022-05-29T12:33:18.895Z</time>
      </trkpt>
      <trkpt lat="45.375" lon="4.66265">
        <ele>690.23340749907</ele>
        <time>2022-05-29T12:33:24.450Z</time>
      </trkpt>
      <trkpt lat="45.3747" lon="4.66275">
        <ele>686.55070073731</ele>
        <time>2022-05-29T12:33:30.015Z</time>
      </trkpt>
      <trkpt lat="45.37416" lon="4.66264">
        <ele>682.95522082322</ele>
        <time>2022-05-29T12:33:35.599Z</time>
      </trkpt>
      <trkpt lat="45.3741" lon="4.66272">
        <ele>673.36291970857</ele>
        <time>2022-05-29T12:33:41.185Z</time>
      </trkpt>
      <trkpt lat="45.3741" lon="4.66289">
        <ele>671.24207738044</ele>
        <time>2022-05-29T12:33:46.775Z</time>
      </trkpt>
      <trkpt lat="45.37414" lon="4.66327">
        <ele>669.14445792071</ele>
        <time>2022-05-29T12:33:52.374Z</time>
      </trkpt>
      <trkpt lat="45.37423" lon="4.66349">
        <ele>667.28984455717</ele>
        <time>2022-05-29T12:33:57.979Z</time>
      </trkpt>
      <trkpt lat="45.37434" lon="4.66365">
        <ele>665.54662536689</ele>
        <time>2022-05-29T12:34:03.590Z</time>
      </trkpt>
      <trkpt lat="45.37438" lon="4.66384">
        <ele>663.80388977505</ele>
        <time>2022-05-29T12:34:09.205Z</time>
      </trkpt>
      <trkpt lat="45.37436" lon="4.66397">
        <ele>662.08323903264</ele>
        <time>2022-05-29T12:34:14.823Z</time>
      </trkpt>
      <trkpt lat="45.37429" lon="4.66403">
        <ele>660.38186523756</ele>
        <time>2022-05-29T12:34:20.444Z</time>
      </trkpt>
      <trkpt lat="45.3742" lon="4.66398">
        <ele>658.73163081982</ele>
        <time>2022-05-29T12:34:26.068Z</time>
      </trkpt>
      <trkpt lat="45.37406" lon="4.66394">
        <ele>657.0700886555</ele>
        <time>2022-05-29T12:34:31.697Z</time>
      </trkpt>
      <trkpt lat="45.3739" lon="4.66395">
        <ele>655.40710904208</ele>
        <time>2022-05-29T12:34:37.332Z</time>
      </trkpt>
      <trkpt lat="45.37364" lon="4.66402">
        <ele>653.79477775739</ele>
        <time>2022-05-29T12:34:42.975Z</time>
      </trkpt>
      <trkpt lat="45.37344" lon="4.66401">
        <ele>652.45140784886</ele>
        <time>2022-05-29T12:34:48.625Z</time>
      </trkpt>
      <trkpt lat="45.37322" lon="4.66391">
        <ele>651.2668602939</ele>
        <time>2022-05-29T12:34:54.283Z</time>
      </trkpt>
      <trkpt lat="45.37318" lon="4.66388">
        <ele>649.47898092734</ele>
        <time>2022-05-29T12:34:59.942Z</time>
      </trkpt>
      <trkpt lat="45.37292" lon="4.6637">
        <ele>650.18311887245</ele>
        <time>2022-05-29T12:35:05.611Z</time>
      </trkpt>
      <trkpt lat="45.37268" lon="4.66348">
        <ele>649.21078521182</ele>
        <time>2022-05-29T12:35:11.289Z</time>
      </trkpt>
      <trkpt lat="45.37248" lon="4.66333">
        <ele>648.11370627106</ele>
        <time>2022-05-29T12:35:16.975Z</time>
      </trkpt>
      <trkpt lat="45.37241" lon="4.66334">
        <ele>646.82543786525</ele>
        <time>2022-05-29T12:35:22.663Z</time>
      </trkpt>
      <trkpt lat="45.37239" lon="4.66336">
        <ele>645.37724354675</ele>
        <time>2022-05-29T12:35:28.352Z</time>
      </trkpt>
      <trkpt lat="45.37226" lon="4.66329">
        <ele>643.6893588943</ele>
        <time>2022-05-29T12:35:34.046Z</time>
      </trkpt>
      <trkpt lat="45.37213" lon="4.66325">
        <ele>641.66954756499</ele>
        <time>2022-05-29T12:35:39.744Z</time>
      </trkpt>
      <trkpt lat="45.37202" lon="4.66325">
        <ele>639.2956866707</ele>
        <time>2022-05-29T12:35:45.446Z</time>
      </trkpt>
      <trkpt lat="45.37165" lon="4.66339">
        <ele>636.45160025715</ele>
        <time>2022-05-29T12:35:51.161Z</time>
      </trkpt>
      <trkpt lat="45.37149" lon="4.66338">
        <ele>633.77638502458</ele>
        <time>2022-05-29T12:35:56.881Z</time>
      </trkpt>
      <trkpt lat="45.3713" lon="4.66331">
        <ele>630.85760144048</ele>
        <time>2022-05-29T12:36:02.607Z</time>
      </trkpt>
      <trkpt lat="45.37113" lon="4.66319">
        <ele>627.65734776635</ele>
        <time>2022-05-29T12:36:08.340Z</time>
      </trkpt>
      <trkpt lat="45.37069" lon="4.66267">
        <ele>624.18337169605</ele>
        <time>2022-05-29T12:36:14.092Z</time>
      </trkpt>
      <trkpt lat="45.37065" lon="4.66262">
        <ele>620.74275489216</ele>
        <time>2022-05-29T12:36:19.846Z</time>
      </trkpt>
      <trkpt lat="45.37053" lon="4.66258">
        <ele>617.011818434</ele>
        <time>2022-05-29T12:36:25.604Z</time>
      </trkpt>
      <trkpt lat="45.37015" lon="4.66252">
        <ele>613.07576635383</ele>
        <time>2022-05-29T12:36:31.375Z</time>
      </trkpt>
      <trkpt lat="45.37005" lon="4.66253">
        <ele>609.68414724348</ele>
        <time>2022-05-29T12:36:37.149Z</time>
      </trkpt>
      <trkpt lat="45.36997" lon="4.6626">
        <ele>606.37761944759</ele>
        <time>2022-05-29T12:36:42.926Z</time>
      </trkpt>
      <trkpt lat="45.36993" lon="4.66271">
        <ele>603.18757320757</ele>
        <time>2022-05-29T12:36:48.706Z</time>
      </trkpt>
      <trkpt lat="45.36991" lon="4.66284">
        <ele>600.07464352114</ele>
        <time>2022-05-29T12:36:54.489Z</time>
      </trkpt>
      <trkpt lat="45.36984" lon="4.663">
        <ele>597.0027261422</ele>
        <time>2022-05-29T12:37:00.276Z</time>
      </trkpt>
      <trkpt lat="45.36978" lon="4.6631">
        <ele>594.20662633581</ele>
        <time>2022-05-29T12:37:06.067Z</time>
      </trkpt>
      <trkpt lat="45.36966" lon="4.663">
        <ele>593.47282921716</ele>
        <time>2022-05-29T12:37:11.862Z</time>
      </trkpt>
      <trkpt lat="45.36941" lon="4.66279">
        <ele>591.62724122864</ele>
        <time>2022-05-29T12:37:17.667Z</time>
      </trkpt>
      <trkpt lat="45.36937" lon="4.66263">
        <ele>589.53383189652</ele>
        <time>2022-05-29T12:37:23.476Z</time>
      </trkpt>
      <trkpt lat="45.3693" lon="4.66235">
        <ele>587.40893500391</ele>
        <time>2022-05-29T12:37:29.292Z</time>
      </trkpt>
      <trkpt lat="45.36926" lon="4.66206">
        <ele>585.03904295392</ele>
        <time>2022-05-29T12:37:35.115Z</time>
      </trkpt>
      <trkpt lat="45.3692" lon="4.66189">
        <ele>582.1658574962</ele>
        <time>2022-05-29T12:37:40.942Z</time>
      </trkpt>
      <trkpt lat="45.36901" lon="4.66192">
        <ele>579.02272640781</ele>
        <time>2022-05-29T12:37:46.776Z</time>
      </trkpt>
      <trkpt lat="45.36896" lon="4.66199">
        <ele>576.10024016969</ele>
        <time>2022-05-29T12:37:52.612Z</time>
      </trkpt>
      <trkpt lat="45.36841" lon="4.6629">
        <ele>573.31493174047</ele>
        <time>2022-05-29T12:37:58.476Z</time>
      </trkpt>
      <trkpt lat="45.36832" lon="4.66298">
        <ele>573.04058459524</ele>
        <time>2022-05-29T12:38:04.344Z</time>
      </trkpt>
    </trkseg>
  </trk>
</gpx>